<?xml version="1.0" encoding="UTF-8" standalone="no" ?>
<gpx xmlns="http://www.topografix.com/GPX/1/1" xmlns:xsi="http://www.w3.org/2001/XMLSchema-instance" xsi:schemaLocation="http://www.topografix.com/GPX/1/1 http://www.topografix.com/GPX/1/1/gpx.xsd" version="1.1" creator="VisuGPX - https://www.visugpx.com">
  <metadata>
    <name>33_Frontenac</name>
    <desc><![CDATA[Frontenac 

Pas de balisage]]></desc>
  </metadata>
  <trk>
    <name><![CDATA[001-2011/03/20-15:07:18]]></name>
    <trkseg>
      <trkpt lat="44.73335" lon="-0.16377">
        <ele>34</ele>
        <time>2011-03-20T14:07:18Z</time>
      </trkpt>
      <trkpt lat="44.7334" lon="-0.16414">
        <ele>30</ele>
        <time>2011-03-20T14:07:46Z</time>
      </trkpt>
      <trkpt lat="44.73344" lon="-0.16426">
        <ele>26</ele>
        <time>2011-03-20T14:07:56Z</time>
      </trkpt>
      <trkpt lat="44.73346" lon="-0.16441">
        <ele>26</ele>
        <time>2011-03-20T14:08:05Z</time>
      </trkpt>
      <trkpt lat="44.73344" lon="-0.16458">
        <ele>26</ele>
        <time>2011-03-20T14:08:15Z</time>
      </trkpt>
      <trkpt lat="44.73338" lon="-0.16461">
        <ele>24</ele>
        <time>2011-03-20T14:08:25Z</time>
      </trkpt>
      <trkpt lat="44.73329" lon="-0.16461">
        <ele>23</ele>
        <time>2011-03-20T14:08:34Z</time>
      </trkpt>
      <trkpt lat="44.73328" lon="-0.16458">
        <ele>23</ele>
        <time>2011-03-20T14:08:57Z</time>
      </trkpt>
      <trkpt lat="44.73327" lon="-0.16458">
        <ele>24</ele>
        <time>2011-03-20T14:09:12Z</time>
      </trkpt>
      <trkpt lat="44.73328" lon="-0.16457">
        <ele>25</ele>
        <time>2011-03-20T14:09:33Z</time>
      </trkpt>
      <trkpt lat="44.73327" lon="-0.1646">
        <ele>29</ele>
        <time>2011-03-20T14:09:42Z</time>
      </trkpt>
      <trkpt lat="44.73317" lon="-0.16459">
        <ele>29</ele>
        <time>2011-03-20T14:09:51Z</time>
      </trkpt>
      <trkpt lat="44.73309" lon="-0.16459">
        <ele>29</ele>
        <time>2011-03-20T14:10:00Z</time>
      </trkpt>
      <trkpt lat="44.73302" lon="-0.16462">
        <ele>29</ele>
        <time>2011-03-20T14:10:09Z</time>
      </trkpt>
      <trkpt lat="44.73289" lon="-0.16461">
        <ele>26</ele>
        <time>2011-03-20T14:10:19Z</time>
      </trkpt>
      <trkpt lat="44.73278" lon="-0.1645">
        <ele>25</ele>
        <time>2011-03-20T14:10:29Z</time>
      </trkpt>
      <trkpt lat="44.73276" lon="-0.16442">
        <ele>25</ele>
        <time>2011-03-20T14:10:38Z</time>
      </trkpt>
      <trkpt lat="44.73276" lon="-0.1644">
        <ele>25</ele>
        <time>2011-03-20T14:10:47Z</time>
      </trkpt>
      <trkpt lat="44.73268" lon="-0.1643">
        <ele>22</ele>
        <time>2011-03-20T14:10:56Z</time>
      </trkpt>
      <trkpt lat="44.73262" lon="-0.16418">
        <ele>22</ele>
        <time>2011-03-20T14:11:05Z</time>
      </trkpt>
      <trkpt lat="44.73259" lon="-0.16413">
        <ele>23</ele>
        <time>2011-03-20T14:11:15Z</time>
      </trkpt>
      <trkpt lat="44.73257" lon="-0.16402">
        <ele>24</ele>
        <time>2011-03-20T14:11:24Z</time>
      </trkpt>
      <trkpt lat="44.73255" lon="-0.16384">
        <ele>26</ele>
        <time>2011-03-20T14:11:33Z</time>
      </trkpt>
      <trkpt lat="44.73256" lon="-0.16368">
        <ele>26</ele>
        <time>2011-03-20T14:11:42Z</time>
      </trkpt>
      <trkpt lat="44.73256" lon="-0.16353">
        <ele>26</ele>
        <time>2011-03-20T14:11:51Z</time>
      </trkpt>
      <trkpt lat="44.73255" lon="-0.16336">
        <ele>26</ele>
        <time>2011-03-20T14:12:00Z</time>
      </trkpt>
      <trkpt lat="44.73255" lon="-0.16318">
        <ele>27</ele>
        <time>2011-03-20T14:12:09Z</time>
      </trkpt>
      <trkpt lat="44.73256" lon="-0.16301">
        <ele>31</ele>
        <time>2011-03-20T14:12:18Z</time>
      </trkpt>
      <trkpt lat="44.73255" lon="-0.16284">
        <ele>31</ele>
        <time>2011-03-20T14:12:27Z</time>
      </trkpt>
      <trkpt lat="44.73255" lon="-0.16267">
        <ele>32</ele>
        <time>2011-03-20T14:12:36Z</time>
      </trkpt>
      <trkpt lat="44.7325" lon="-0.16251">
        <ele>32</ele>
        <time>2011-03-20T14:12:45Z</time>
      </trkpt>
      <trkpt lat="44.73245" lon="-0.16235">
        <ele>32</ele>
        <time>2011-03-20T14:12:54Z</time>
      </trkpt>
      <trkpt lat="44.73242" lon="-0.16217">
        <ele>32</ele>
        <time>2011-03-20T14:13:03Z</time>
      </trkpt>
      <trkpt lat="44.73241" lon="-0.16198">
        <ele>32</ele>
        <time>2011-03-20T14:13:12Z</time>
      </trkpt>
      <trkpt lat="44.73238" lon="-0.1618">
        <ele>34</ele>
        <time>2011-03-20T14:13:21Z</time>
      </trkpt>
      <trkpt lat="44.73235" lon="-0.16162">
        <ele>36</ele>
        <time>2011-03-20T14:13:30Z</time>
      </trkpt>
      <trkpt lat="44.73232" lon="-0.16145">
        <ele>37</ele>
        <time>2011-03-20T14:13:39Z</time>
      </trkpt>
      <trkpt lat="44.73223" lon="-0.16133">
        <ele>37</ele>
        <time>2011-03-20T14:13:48Z</time>
      </trkpt>
      <trkpt lat="44.73213" lon="-0.16123">
        <ele>37</ele>
        <time>2011-03-20T14:13:57Z</time>
      </trkpt>
      <trkpt lat="44.73204" lon="-0.1611">
        <ele>37</ele>
        <time>2011-03-20T14:14:06Z</time>
      </trkpt>
      <trkpt lat="44.732" lon="-0.16093">
        <ele>37</ele>
        <time>2011-03-20T14:14:15Z</time>
      </trkpt>
      <trkpt lat="44.73193" lon="-0.16075">
        <ele>37</ele>
        <time>2011-03-20T14:14:24Z</time>
      </trkpt>
      <trkpt lat="44.73185" lon="-0.16061">
        <ele>38</ele>
        <time>2011-03-20T14:14:34Z</time>
      </trkpt>
      <trkpt lat="44.73182" lon="-0.16057">
        <ele>45</ele>
        <time>2011-03-20T14:14:44Z</time>
      </trkpt>
      <trkpt lat="44.73178" lon="-0.16051">
        <ele>46</ele>
        <time>2011-03-20T14:14:54Z</time>
      </trkpt>
      <trkpt lat="44.73171" lon="-0.16036">
        <ele>46</ele>
        <time>2011-03-20T14:15:03Z</time>
      </trkpt>
      <trkpt lat="44.73173" lon="-0.16035">
        <ele>46</ele>
        <time>2011-03-20T14:15:15Z</time>
      </trkpt>
      <trkpt lat="44.73169" lon="-0.16026">
        <ele>46</ele>
        <time>2011-03-20T14:15:24Z</time>
      </trkpt>
      <trkpt lat="44.73163" lon="-0.16012">
        <ele>46</ele>
        <time>2011-03-20T14:15:34Z</time>
      </trkpt>
      <trkpt lat="44.73159" lon="-0.16">
        <ele>46</ele>
        <time>2011-03-20T14:15:43Z</time>
      </trkpt>
      <trkpt lat="44.73153" lon="-0.15983">
        <ele>46</ele>
        <time>2011-03-20T14:15:53Z</time>
      </trkpt>
      <trkpt lat="44.73148" lon="-0.15965">
        <ele>45</ele>
        <time>2011-03-20T14:16:02Z</time>
      </trkpt>
      <trkpt lat="44.73141" lon="-0.15948">
        <ele>45</ele>
        <time>2011-03-20T14:16:11Z</time>
      </trkpt>
      <trkpt lat="44.73136" lon="-0.1594">
        <ele>45</ele>
        <time>2011-03-20T14:16:20Z</time>
      </trkpt>
      <trkpt lat="44.73131" lon="-0.15929">
        <ele>45</ele>
        <time>2011-03-20T14:16:31Z</time>
      </trkpt>
      <trkpt lat="44.73126" lon="-0.15915">
        <ele>45</ele>
        <time>2011-03-20T14:16:41Z</time>
      </trkpt>
      <trkpt lat="44.7312" lon="-0.15904">
        <ele>45</ele>
        <time>2011-03-20T14:16:51Z</time>
      </trkpt>
      <trkpt lat="44.73114" lon="-0.15892">
        <ele>45</ele>
        <time>2011-03-20T14:17:00Z</time>
      </trkpt>
      <trkpt lat="44.73107" lon="-0.15878">
        <ele>45</ele>
        <time>2011-03-20T14:17:09Z</time>
      </trkpt>
      <trkpt lat="44.73097" lon="-0.15862">
        <ele>45</ele>
        <time>2011-03-20T14:17:18Z</time>
      </trkpt>
      <trkpt lat="44.73089" lon="-0.15845">
        <ele>46</ele>
        <time>2011-03-20T14:17:27Z</time>
      </trkpt>
      <trkpt lat="44.73081" lon="-0.1583">
        <ele>46</ele>
        <time>2011-03-20T14:17:36Z</time>
      </trkpt>
      <trkpt lat="44.73073" lon="-0.15814">
        <ele>46</ele>
        <time>2011-03-20T14:17:45Z</time>
      </trkpt>
      <trkpt lat="44.73063" lon="-0.15796">
        <ele>48</ele>
        <time>2011-03-20T14:17:55Z</time>
      </trkpt>
      <trkpt lat="44.73053" lon="-0.15784">
        <ele>49</ele>
        <time>2011-03-20T14:18:04Z</time>
      </trkpt>
      <trkpt lat="44.73043" lon="-0.1577">
        <ele>49</ele>
        <time>2011-03-20T14:18:13Z</time>
      </trkpt>
      <trkpt lat="44.73032" lon="-0.15758">
        <ele>49</ele>
        <time>2011-03-20T14:18:22Z</time>
      </trkpt>
      <trkpt lat="44.7302" lon="-0.15746">
        <ele>49</ele>
        <time>2011-03-20T14:18:32Z</time>
      </trkpt>
      <trkpt lat="44.73009" lon="-0.15734">
        <ele>49</ele>
        <time>2011-03-20T14:18:42Z</time>
      </trkpt>
      <trkpt lat="44.73" lon="-0.15726">
        <ele>49</ele>
        <time>2011-03-20T14:18:51Z</time>
      </trkpt>
      <trkpt lat="44.7299" lon="-0.1572">
        <ele>49</ele>
        <time>2011-03-20T14:19:00Z</time>
      </trkpt>
      <trkpt lat="44.7298" lon="-0.15712">
        <ele>49</ele>
        <time>2011-03-20T14:19:10Z</time>
      </trkpt>
      <trkpt lat="44.72969" lon="-0.15706">
        <ele>49</ele>
        <time>2011-03-20T14:19:19Z</time>
      </trkpt>
      <trkpt lat="44.72953" lon="-0.15701">
        <ele>49</ele>
        <time>2011-03-20T14:19:31Z</time>
      </trkpt>
      <trkpt lat="44.72942" lon="-0.15703">
        <ele>49</ele>
        <time>2011-03-20T14:19:41Z</time>
      </trkpt>
      <trkpt lat="44.72928" lon="-0.15704">
        <ele>49</ele>
        <time>2011-03-20T14:19:52Z</time>
      </trkpt>
      <trkpt lat="44.72914" lon="-0.15703">
        <ele>49</ele>
        <time>2011-03-20T14:20:04Z</time>
      </trkpt>
      <trkpt lat="44.729" lon="-0.15696">
        <ele>49</ele>
        <time>2011-03-20T14:20:14Z</time>
      </trkpt>
      <trkpt lat="44.72889" lon="-0.15691">
        <ele>49</ele>
        <time>2011-03-20T14:20:23Z</time>
      </trkpt>
      <trkpt lat="44.7288" lon="-0.15683">
        <ele>49</ele>
        <time>2011-03-20T14:20:33Z</time>
      </trkpt>
      <trkpt lat="44.72867" lon="-0.15673">
        <ele>49</ele>
        <time>2011-03-20T14:20:44Z</time>
      </trkpt>
      <trkpt lat="44.72854" lon="-0.15664">
        <ele>49</ele>
        <time>2011-03-20T14:20:54Z</time>
      </trkpt>
      <trkpt lat="44.7284" lon="-0.15652">
        <ele>49</ele>
        <time>2011-03-20T14:21:05Z</time>
      </trkpt>
      <trkpt lat="44.72827" lon="-0.15642">
        <ele>49</ele>
        <time>2011-03-20T14:21:14Z</time>
      </trkpt>
      <trkpt lat="44.72813" lon="-0.15636">
        <ele>49</ele>
        <time>2011-03-20T14:21:26Z</time>
      </trkpt>
      <trkpt lat="44.72801" lon="-0.15633">
        <ele>47</ele>
        <time>2011-03-20T14:21:37Z</time>
      </trkpt>
      <trkpt lat="44.72788" lon="-0.15625">
        <ele>47</ele>
        <time>2011-03-20T14:21:47Z</time>
      </trkpt>
      <trkpt lat="44.72779" lon="-0.15613">
        <ele>47</ele>
        <time>2011-03-20T14:21:56Z</time>
      </trkpt>
      <trkpt lat="44.72771" lon="-0.15605">
        <ele>46</ele>
        <time>2011-03-20T14:22:05Z</time>
      </trkpt>
      <trkpt lat="44.72762" lon="-0.15598">
        <ele>45</ele>
        <time>2011-03-20T14:22:14Z</time>
      </trkpt>
      <trkpt lat="44.72752" lon="-0.1559">
        <ele>44</ele>
        <time>2011-03-20T14:22:24Z</time>
      </trkpt>
      <trkpt lat="44.72744" lon="-0.15582">
        <ele>44</ele>
        <time>2011-03-20T14:22:33Z</time>
      </trkpt>
      <trkpt lat="44.72734" lon="-0.15577">
        <ele>43</ele>
        <time>2011-03-20T14:22:42Z</time>
      </trkpt>
      <trkpt lat="44.72724" lon="-0.15571">
        <ele>42</ele>
        <time>2011-03-20T14:22:51Z</time>
      </trkpt>
      <trkpt lat="44.72714" lon="-0.15567">
        <ele>42</ele>
        <time>2011-03-20T14:23:00Z</time>
      </trkpt>
      <trkpt lat="44.72703" lon="-0.15561">
        <ele>42</ele>
        <time>2011-03-20T14:23:09Z</time>
      </trkpt>
      <trkpt lat="44.72693" lon="-0.15554">
        <ele>41</ele>
        <time>2011-03-20T14:23:18Z</time>
      </trkpt>
      <trkpt lat="44.72682" lon="-0.15548">
        <ele>41</ele>
        <time>2011-03-20T14:23:28Z</time>
      </trkpt>
      <trkpt lat="44.72673" lon="-0.15537">
        <ele>40</ele>
        <time>2011-03-20T14:23:37Z</time>
      </trkpt>
      <trkpt lat="44.72666" lon="-0.15524">
        <ele>39</ele>
        <time>2011-03-20T14:23:47Z</time>
      </trkpt>
      <trkpt lat="44.72663" lon="-0.15509">
        <ele>39</ele>
        <time>2011-03-20T14:23:56Z</time>
      </trkpt>
      <trkpt lat="44.72661" lon="-0.15495">
        <ele>39</ele>
        <time>2011-03-20T14:24:05Z</time>
      </trkpt>
      <trkpt lat="44.72658" lon="-0.15481">
        <ele>37</ele>
        <time>2011-03-20T14:24:14Z</time>
      </trkpt>
      <trkpt lat="44.7265" lon="-0.15469">
        <ele>37</ele>
        <time>2011-03-20T14:24:23Z</time>
      </trkpt>
      <trkpt lat="44.7264" lon="-0.15462">
        <ele>37</ele>
        <time>2011-03-20T14:24:32Z</time>
      </trkpt>
      <trkpt lat="44.72636" lon="-0.15458">
        <ele>37</ele>
        <time>2011-03-20T14:24:41Z</time>
      </trkpt>
      <trkpt lat="44.72638" lon="-0.15455">
        <ele>37</ele>
        <time>2011-03-20T14:24:50Z</time>
      </trkpt>
      <trkpt lat="44.72632" lon="-0.15456">
        <ele>37</ele>
        <time>2011-03-20T14:24:59Z</time>
      </trkpt>
      <trkpt lat="44.7262" lon="-0.15455">
        <ele>37</ele>
        <time>2011-03-20T14:25:08Z</time>
      </trkpt>
      <trkpt lat="44.72607" lon="-0.15456">
        <ele>37</ele>
        <time>2011-03-20T14:25:17Z</time>
      </trkpt>
      <trkpt lat="44.72594" lon="-0.15457">
        <ele>36</ele>
        <time>2011-03-20T14:25:26Z</time>
      </trkpt>
      <trkpt lat="44.72583" lon="-0.1546">
        <ele>35</ele>
        <time>2011-03-20T14:25:35Z</time>
      </trkpt>
      <trkpt lat="44.72573" lon="-0.15463">
        <ele>35</ele>
        <time>2011-03-20T14:25:44Z</time>
      </trkpt>
      <trkpt lat="44.7256" lon="-0.1547">
        <ele>35</ele>
        <time>2011-03-20T14:25:54Z</time>
      </trkpt>
      <trkpt lat="44.72551" lon="-0.15478">
        <ele>35</ele>
        <time>2011-03-20T14:26:03Z</time>
      </trkpt>
      <trkpt lat="44.72547" lon="-0.15493">
        <ele>38</ele>
        <time>2011-03-20T14:26:12Z</time>
      </trkpt>
      <trkpt lat="44.72543" lon="-0.15508">
        <ele>40</ele>
        <time>2011-03-20T14:26:21Z</time>
      </trkpt>
      <trkpt lat="44.7254" lon="-0.15524">
        <ele>41</ele>
        <time>2011-03-20T14:26:30Z</time>
      </trkpt>
      <trkpt lat="44.72535" lon="-0.15539">
        <ele>42</ele>
        <time>2011-03-20T14:26:39Z</time>
      </trkpt>
      <trkpt lat="44.72527" lon="-0.15552">
        <ele>43</ele>
        <time>2011-03-20T14:26:49Z</time>
      </trkpt>
      <trkpt lat="44.72518" lon="-0.15559">
        <ele>44</ele>
        <time>2011-03-20T14:26:58Z</time>
      </trkpt>
      <trkpt lat="44.72509" lon="-0.15563">
        <ele>44</ele>
        <time>2011-03-20T14:27:07Z</time>
      </trkpt>
      <trkpt lat="44.72499" lon="-0.15567">
        <ele>44</ele>
        <time>2011-03-20T14:27:16Z</time>
      </trkpt>
      <trkpt lat="44.72489" lon="-0.15569">
        <ele>44</ele>
        <time>2011-03-20T14:27:25Z</time>
      </trkpt>
      <trkpt lat="44.72478" lon="-0.15569">
        <ele>44</ele>
        <time>2011-03-20T14:27:34Z</time>
      </trkpt>
      <trkpt lat="44.72467" lon="-0.15563">
        <ele>44</ele>
        <time>2011-03-20T14:27:44Z</time>
      </trkpt>
      <trkpt lat="44.72463" lon="-0.15554">
        <ele>44</ele>
        <time>2011-03-20T14:27:53Z</time>
      </trkpt>
      <trkpt lat="44.72459" lon="-0.15539">
        <ele>44</ele>
        <time>2011-03-20T14:28:02Z</time>
      </trkpt>
      <trkpt lat="44.72456" lon="-0.15523">
        <ele>44</ele>
        <time>2011-03-20T14:28:11Z</time>
      </trkpt>
      <trkpt lat="44.72454" lon="-0.15507">
        <ele>44</ele>
        <time>2011-03-20T14:28:20Z</time>
      </trkpt>
      <trkpt lat="44.72453" lon="-0.15491">
        <ele>45</ele>
        <time>2011-03-20T14:28:29Z</time>
      </trkpt>
      <trkpt lat="44.72448" lon="-0.15476">
        <ele>45</ele>
        <time>2011-03-20T14:28:38Z</time>
      </trkpt>
      <trkpt lat="44.72442" lon="-0.15463">
        <ele>46</ele>
        <time>2011-03-20T14:28:47Z</time>
      </trkpt>
      <trkpt lat="44.72433" lon="-0.15451">
        <ele>46</ele>
        <time>2011-03-20T14:28:57Z</time>
      </trkpt>
      <trkpt lat="44.72422" lon="-0.15443">
        <ele>47</ele>
        <time>2011-03-20T14:29:07Z</time>
      </trkpt>
      <trkpt lat="44.7241" lon="-0.15436">
        <ele>47</ele>
        <time>2011-03-20T14:29:17Z</time>
      </trkpt>
      <trkpt lat="44.724" lon="-0.15429">
        <ele>47</ele>
        <time>2011-03-20T14:29:26Z</time>
      </trkpt>
      <trkpt lat="44.7239" lon="-0.15421">
        <ele>47</ele>
        <time>2011-03-20T14:29:36Z</time>
      </trkpt>
      <trkpt lat="44.72381" lon="-0.15411">
        <ele>48</ele>
        <time>2011-03-20T14:29:45Z</time>
      </trkpt>
      <trkpt lat="44.72374" lon="-0.154">
        <ele>48</ele>
        <time>2011-03-20T14:29:55Z</time>
      </trkpt>
      <trkpt lat="44.72368" lon="-0.15386">
        <ele>48</ele>
        <time>2011-03-20T14:30:04Z</time>
      </trkpt>
      <trkpt lat="44.72363" lon="-0.15373">
        <ele>49</ele>
        <time>2011-03-20T14:30:14Z</time>
      </trkpt>
      <trkpt lat="44.7236" lon="-0.15357">
        <ele>50</ele>
        <time>2011-03-20T14:30:23Z</time>
      </trkpt>
      <trkpt lat="44.72357" lon="-0.15341">
        <ele>50</ele>
        <time>2011-03-20T14:30:32Z</time>
      </trkpt>
      <trkpt lat="44.72354" lon="-0.15325">
        <ele>50</ele>
        <time>2011-03-20T14:30:41Z</time>
      </trkpt>
      <trkpt lat="44.72352" lon="-0.1531">
        <ele>50</ele>
        <time>2011-03-20T14:30:50Z</time>
      </trkpt>
      <trkpt lat="44.7235" lon="-0.15296">
        <ele>51</ele>
        <time>2011-03-20T14:30:59Z</time>
      </trkpt>
      <trkpt lat="44.72346" lon="-0.15281">
        <ele>51</ele>
        <time>2011-03-20T14:31:08Z</time>
      </trkpt>
      <trkpt lat="44.72344" lon="-0.15268">
        <ele>51</ele>
        <time>2011-03-20T14:31:17Z</time>
      </trkpt>
      <trkpt lat="44.72342" lon="-0.15255">
        <ele>51</ele>
        <time>2011-03-20T14:31:26Z</time>
      </trkpt>
      <trkpt lat="44.72338" lon="-0.15242">
        <ele>51</ele>
        <time>2011-03-20T14:31:35Z</time>
      </trkpt>
      <trkpt lat="44.72335" lon="-0.15227">
        <ele>51</ele>
        <time>2011-03-20T14:31:45Z</time>
      </trkpt>
      <trkpt lat="44.72333" lon="-0.15212">
        <ele>54</ele>
        <time>2011-03-20T14:31:54Z</time>
      </trkpt>
      <trkpt lat="44.72331" lon="-0.15199">
        <ele>55</ele>
        <time>2011-03-20T14:32:03Z</time>
      </trkpt>
      <trkpt lat="44.72327" lon="-0.15182">
        <ele>55</ele>
        <time>2011-03-20T14:32:12Z</time>
      </trkpt>
      <trkpt lat="44.72322" lon="-0.15168">
        <ele>55</ele>
        <time>2011-03-20T14:32:21Z</time>
      </trkpt>
      <trkpt lat="44.72315" lon="-0.15154">
        <ele>55</ele>
        <time>2011-03-20T14:32:30Z</time>
      </trkpt>
      <trkpt lat="44.72306" lon="-0.15142">
        <ele>56</ele>
        <time>2011-03-20T14:32:40Z</time>
      </trkpt>
      <trkpt lat="44.72295" lon="-0.15135">
        <ele>56</ele>
        <time>2011-03-20T14:32:49Z</time>
      </trkpt>
      <trkpt lat="44.72285" lon="-0.15132">
        <ele>56</ele>
        <time>2011-03-20T14:32:58Z</time>
      </trkpt>
      <trkpt lat="44.72273" lon="-0.15133">
        <ele>56</ele>
        <time>2011-03-20T14:33:07Z</time>
      </trkpt>
      <trkpt lat="44.72261" lon="-0.15134">
        <ele>56</ele>
        <time>2011-03-20T14:33:16Z</time>
      </trkpt>
      <trkpt lat="44.72249" lon="-0.15135">
        <ele>56</ele>
        <time>2011-03-20T14:33:25Z</time>
      </trkpt>
      <trkpt lat="44.72238" lon="-0.15136">
        <ele>56</ele>
        <time>2011-03-20T14:33:34Z</time>
      </trkpt>
      <trkpt lat="44.72226" lon="-0.15134">
        <ele>56</ele>
        <time>2011-03-20T14:33:43Z</time>
      </trkpt>
      <trkpt lat="44.72215" lon="-0.15134">
        <ele>56</ele>
        <time>2011-03-20T14:33:52Z</time>
      </trkpt>
      <trkpt lat="44.72204" lon="-0.15135">
        <ele>56</ele>
        <time>2011-03-20T14:34:01Z</time>
      </trkpt>
      <trkpt lat="44.72193" lon="-0.1514">
        <ele>56</ele>
        <time>2011-03-20T14:34:10Z</time>
      </trkpt>
      <trkpt lat="44.72182" lon="-0.15149">
        <ele>56</ele>
        <time>2011-03-20T14:34:20Z</time>
      </trkpt>
      <trkpt lat="44.72173" lon="-0.15159">
        <ele>56</ele>
        <time>2011-03-20T14:34:29Z</time>
      </trkpt>
      <trkpt lat="44.72163" lon="-0.15167">
        <ele>56</ele>
        <time>2011-03-20T14:34:38Z</time>
      </trkpt>
      <trkpt lat="44.72153" lon="-0.15178">
        <ele>56</ele>
        <time>2011-03-20T14:34:48Z</time>
      </trkpt>
      <trkpt lat="44.72143" lon="-0.15185">
        <ele>56</ele>
        <time>2011-03-20T14:34:57Z</time>
      </trkpt>
      <trkpt lat="44.72132" lon="-0.15192">
        <ele>56</ele>
        <time>2011-03-20T14:35:06Z</time>
      </trkpt>
      <trkpt lat="44.72122" lon="-0.15198">
        <ele>56</ele>
        <time>2011-03-20T14:35:15Z</time>
      </trkpt>
      <trkpt lat="44.72112" lon="-0.15203">
        <ele>56</ele>
        <time>2011-03-20T14:35:24Z</time>
      </trkpt>
      <trkpt lat="44.72101" lon="-0.15211">
        <ele>56</ele>
        <time>2011-03-20T14:35:34Z</time>
      </trkpt>
      <trkpt lat="44.72091" lon="-0.15217">
        <ele>56</ele>
        <time>2011-03-20T14:35:43Z</time>
      </trkpt>
      <trkpt lat="44.7208" lon="-0.15223">
        <ele>56</ele>
        <time>2011-03-20T14:35:52Z</time>
      </trkpt>
      <trkpt lat="44.7207" lon="-0.15229">
        <ele>56</ele>
        <time>2011-03-20T14:36:01Z</time>
      </trkpt>
      <trkpt lat="44.7206" lon="-0.15234">
        <ele>56</ele>
        <time>2011-03-20T14:36:10Z</time>
      </trkpt>
      <trkpt lat="44.72049" lon="-0.15239">
        <ele>56</ele>
        <time>2011-03-20T14:36:19Z</time>
      </trkpt>
      <trkpt lat="44.72039" lon="-0.15243">
        <ele>56</ele>
        <time>2011-03-20T14:36:28Z</time>
      </trkpt>
      <trkpt lat="44.72029" lon="-0.15247">
        <ele>56</ele>
        <time>2011-03-20T14:36:37Z</time>
      </trkpt>
      <trkpt lat="44.72018" lon="-0.15249">
        <ele>56</ele>
        <time>2011-03-20T14:36:46Z</time>
      </trkpt>
      <trkpt lat="44.72007" lon="-0.15252">
        <ele>56</ele>
        <time>2011-03-20T14:36:55Z</time>
      </trkpt>
      <trkpt lat="44.71996" lon="-0.15255">
        <ele>56</ele>
        <time>2011-03-20T14:37:04Z</time>
      </trkpt>
      <trkpt lat="44.71985" lon="-0.15259">
        <ele>56</ele>
        <time>2011-03-20T14:37:13Z</time>
      </trkpt>
      <trkpt lat="44.71974" lon="-0.15263">
        <ele>56</ele>
        <time>2011-03-20T14:37:22Z</time>
      </trkpt>
      <trkpt lat="44.71963" lon="-0.15267">
        <ele>56</ele>
        <time>2011-03-20T14:37:31Z</time>
      </trkpt>
      <trkpt lat="44.71952" lon="-0.15272">
        <ele>56</ele>
        <time>2011-03-20T14:37:40Z</time>
      </trkpt>
      <trkpt lat="44.71941" lon="-0.15276">
        <ele>56</ele>
        <time>2011-03-20T14:37:49Z</time>
      </trkpt>
      <trkpt lat="44.7193" lon="-0.1528">
        <ele>56</ele>
        <time>2011-03-20T14:37:58Z</time>
      </trkpt>
      <trkpt lat="44.71919" lon="-0.15284">
        <ele>56</ele>
        <time>2011-03-20T14:38:07Z</time>
      </trkpt>
      <trkpt lat="44.71908" lon="-0.15289">
        <ele>56</ele>
        <time>2011-03-20T14:38:16Z</time>
      </trkpt>
      <trkpt lat="44.71897" lon="-0.15292">
        <ele>56</ele>
        <time>2011-03-20T14:38:25Z</time>
      </trkpt>
      <trkpt lat="44.71886" lon="-0.15295">
        <ele>55</ele>
        <time>2011-03-20T14:38:34Z</time>
      </trkpt>
      <trkpt lat="44.71875" lon="-0.15298">
        <ele>55</ele>
        <time>2011-03-20T14:38:43Z</time>
      </trkpt>
      <trkpt lat="44.71864" lon="-0.15298">
        <ele>55</ele>
        <time>2011-03-20T14:38:52Z</time>
      </trkpt>
      <trkpt lat="44.71856" lon="-0.15293">
        <ele>54</ele>
        <time>2011-03-20T14:39:02Z</time>
      </trkpt>
      <trkpt lat="44.71852" lon="-0.15278">
        <ele>54</ele>
        <time>2011-03-20T14:39:12Z</time>
      </trkpt>
      <trkpt lat="44.7185" lon="-0.15263">
        <ele>54</ele>
        <time>2011-03-20T14:39:22Z</time>
      </trkpt>
      <trkpt lat="44.71847" lon="-0.15246">
        <ele>54</ele>
        <time>2011-03-20T14:39:31Z</time>
      </trkpt>
      <trkpt lat="44.71845" lon="-0.1523">
        <ele>54</ele>
        <time>2011-03-20T14:39:41Z</time>
      </trkpt>
      <trkpt lat="44.71842" lon="-0.15211">
        <ele>54</ele>
        <time>2011-03-20T14:39:52Z</time>
      </trkpt>
      <trkpt lat="44.71839" lon="-0.15195">
        <ele>54</ele>
        <time>2011-03-20T14:40:01Z</time>
      </trkpt>
      <trkpt lat="44.71837" lon="-0.1518">
        <ele>54</ele>
        <time>2011-03-20T14:40:10Z</time>
      </trkpt>
      <trkpt lat="44.71834" lon="-0.15162">
        <ele>54</ele>
        <time>2011-03-20T14:40:22Z</time>
      </trkpt>
      <trkpt lat="44.71831" lon="-0.15146">
        <ele>54</ele>
        <time>2011-03-20T14:40:32Z</time>
      </trkpt>
      <trkpt lat="44.71831" lon="-0.15127">
        <ele>54</ele>
        <time>2011-03-20T14:40:43Z</time>
      </trkpt>
      <trkpt lat="44.71832" lon="-0.15109">
        <ele>54</ele>
        <time>2011-03-20T14:40:53Z</time>
      </trkpt>
      <trkpt lat="44.71833" lon="-0.15092">
        <ele>54</ele>
        <time>2011-03-20T14:41:03Z</time>
      </trkpt>
      <trkpt lat="44.71834" lon="-0.15076">
        <ele>54</ele>
        <time>2011-03-20T14:41:13Z</time>
      </trkpt>
      <trkpt lat="44.71833" lon="-0.15058">
        <ele>54</ele>
        <time>2011-03-20T14:41:22Z</time>
      </trkpt>
      <trkpt lat="44.71831" lon="-0.15039">
        <ele>55</ele>
        <time>2011-03-20T14:41:32Z</time>
      </trkpt>
      <trkpt lat="44.71828" lon="-0.15025">
        <ele>56</ele>
        <time>2011-03-20T14:41:41Z</time>
      </trkpt>
      <trkpt lat="44.71824" lon="-0.1501">
        <ele>56</ele>
        <time>2011-03-20T14:41:50Z</time>
      </trkpt>
      <trkpt lat="44.7182" lon="-0.14993">
        <ele>56</ele>
        <time>2011-03-20T14:42:01Z</time>
      </trkpt>
      <trkpt lat="44.71817" lon="-0.14976">
        <ele>56</ele>
        <time>2011-03-20T14:42:10Z</time>
      </trkpt>
      <trkpt lat="44.71813" lon="-0.14958">
        <ele>56</ele>
        <time>2011-03-20T14:42:22Z</time>
      </trkpt>
      <trkpt lat="44.7181" lon="-0.14942">
        <ele>57</ele>
        <time>2011-03-20T14:42:31Z</time>
      </trkpt>
      <trkpt lat="44.71806" lon="-0.14925">
        <ele>57</ele>
        <time>2011-03-20T14:42:40Z</time>
      </trkpt>
      <trkpt lat="44.71802" lon="-0.14911">
        <ele>57</ele>
        <time>2011-03-20T14:42:50Z</time>
      </trkpt>
      <trkpt lat="44.71806" lon="-0.14894">
        <ele>57</ele>
        <time>2011-03-20T14:43:01Z</time>
      </trkpt>
      <trkpt lat="44.71818" lon="-0.1488">
        <ele>57</ele>
        <time>2011-03-20T14:43:14Z</time>
      </trkpt>
      <trkpt lat="44.71827" lon="-0.14871">
        <ele>57</ele>
        <time>2011-03-20T14:43:24Z</time>
      </trkpt>
      <trkpt lat="44.71837" lon="-0.1486">
        <ele>57</ele>
        <time>2011-03-20T14:43:33Z</time>
      </trkpt>
      <trkpt lat="44.71846" lon="-0.1485">
        <ele>57</ele>
        <time>2011-03-20T14:43:44Z</time>
      </trkpt>
      <trkpt lat="44.71858" lon="-0.14839">
        <ele>57</ele>
        <time>2011-03-20T14:43:55Z</time>
      </trkpt>
      <trkpt lat="44.71868" lon="-0.14827">
        <ele>58</ele>
        <time>2011-03-20T14:44:06Z</time>
      </trkpt>
      <trkpt lat="44.71876" lon="-0.14818">
        <ele>59</ele>
        <time>2011-03-20T14:44:15Z</time>
      </trkpt>
      <trkpt lat="44.71885" lon="-0.14808">
        <ele>60</ele>
        <time>2011-03-20T14:44:24Z</time>
      </trkpt>
      <trkpt lat="44.71895" lon="-0.14796">
        <ele>60</ele>
        <time>2011-03-20T14:44:36Z</time>
      </trkpt>
      <trkpt lat="44.71905" lon="-0.14783">
        <ele>60</ele>
        <time>2011-03-20T14:44:47Z</time>
      </trkpt>
      <trkpt lat="44.71914" lon="-0.14772">
        <ele>60</ele>
        <time>2011-03-20T14:44:56Z</time>
      </trkpt>
      <trkpt lat="44.71926" lon="-0.14758">
        <ele>61</ele>
        <time>2011-03-20T14:45:09Z</time>
      </trkpt>
      <trkpt lat="44.71938" lon="-0.14741">
        <ele>62</ele>
        <time>2011-03-20T14:45:23Z</time>
      </trkpt>
      <trkpt lat="44.71947" lon="-0.1473">
        <ele>62</ele>
        <time>2011-03-20T14:45:33Z</time>
      </trkpt>
      <trkpt lat="44.71953" lon="-0.14723">
        <ele>63</ele>
        <time>2011-03-20T14:45:43Z</time>
      </trkpt>
      <trkpt lat="44.71954" lon="-0.14721">
        <ele>63</ele>
        <time>2011-03-20T14:46:08Z</time>
      </trkpt>
      <trkpt lat="44.71955" lon="-0.1472">
        <ele>63</ele>
        <time>2011-03-20T14:46:22Z</time>
      </trkpt>
      <trkpt lat="44.71964" lon="-0.14712">
        <ele>63</ele>
        <time>2011-03-20T14:46:32Z</time>
      </trkpt>
      <trkpt lat="44.71971" lon="-0.14702">
        <ele>63</ele>
        <time>2011-03-20T14:46:42Z</time>
      </trkpt>
      <trkpt lat="44.71976" lon="-0.14689">
        <ele>63</ele>
        <time>2011-03-20T14:46:52Z</time>
      </trkpt>
      <trkpt lat="44.7198" lon="-0.14675">
        <ele>63</ele>
        <time>2011-03-20T14:47:01Z</time>
      </trkpt>
      <trkpt lat="44.71979" lon="-0.1466">
        <ele>64</ele>
        <time>2011-03-20T14:47:10Z</time>
      </trkpt>
      <trkpt lat="44.71976" lon="-0.14645">
        <ele>64</ele>
        <time>2011-03-20T14:47:19Z</time>
      </trkpt>
      <trkpt lat="44.71973" lon="-0.14631">
        <ele>64</ele>
        <time>2011-03-20T14:47:28Z</time>
      </trkpt>
      <trkpt lat="44.71969" lon="-0.14615">
        <ele>64</ele>
        <time>2011-03-20T14:47:37Z</time>
      </trkpt>
      <trkpt lat="44.71967" lon="-0.14599">
        <ele>64</ele>
        <time>2011-03-20T14:47:46Z</time>
      </trkpt>
      <trkpt lat="44.71968" lon="-0.14584">
        <ele>64</ele>
        <time>2011-03-20T14:47:55Z</time>
      </trkpt>
      <trkpt lat="44.71972" lon="-0.1457">
        <ele>64</ele>
        <time>2011-03-20T14:48:04Z</time>
      </trkpt>
      <trkpt lat="44.71979" lon="-0.14558">
        <ele>64</ele>
        <time>2011-03-20T14:48:13Z</time>
      </trkpt>
      <trkpt lat="44.71986" lon="-0.14545">
        <ele>64</ele>
        <time>2011-03-20T14:48:23Z</time>
      </trkpt>
      <trkpt lat="44.71994" lon="-0.14532">
        <ele>64</ele>
        <time>2011-03-20T14:48:33Z</time>
      </trkpt>
      <trkpt lat="44.72001" lon="-0.14519">
        <ele>64</ele>
        <time>2011-03-20T14:48:43Z</time>
      </trkpt>
      <trkpt lat="44.72007" lon="-0.14507">
        <ele>64</ele>
        <time>2011-03-20T14:48:52Z</time>
      </trkpt>
      <trkpt lat="44.72015" lon="-0.14494">
        <ele>64</ele>
        <time>2011-03-20T14:49:02Z</time>
      </trkpt>
      <trkpt lat="44.72023" lon="-0.14483">
        <ele>64</ele>
        <time>2011-03-20T14:49:11Z</time>
      </trkpt>
      <trkpt lat="44.7203" lon="-0.14471">
        <ele>64</ele>
        <time>2011-03-20T14:49:20Z</time>
      </trkpt>
      <trkpt lat="44.72037" lon="-0.1446">
        <ele>64</ele>
        <time>2011-03-20T14:49:29Z</time>
      </trkpt>
      <trkpt lat="44.72044" lon="-0.14446">
        <ele>64</ele>
        <time>2011-03-20T14:49:39Z</time>
      </trkpt>
      <trkpt lat="44.72051" lon="-0.14435">
        <ele>64</ele>
        <time>2011-03-20T14:49:48Z</time>
      </trkpt>
      <trkpt lat="44.72059" lon="-0.14423">
        <ele>64</ele>
        <time>2011-03-20T14:49:58Z</time>
      </trkpt>
      <trkpt lat="44.72067" lon="-0.14412">
        <ele>64</ele>
        <time>2011-03-20T14:50:07Z</time>
      </trkpt>
      <trkpt lat="44.72076" lon="-0.14399">
        <ele>64</ele>
        <time>2011-03-20T14:50:17Z</time>
      </trkpt>
      <trkpt lat="44.72083" lon="-0.14388">
        <ele>64</ele>
        <time>2011-03-20T14:50:26Z</time>
      </trkpt>
      <trkpt lat="44.7209" lon="-0.14375">
        <ele>64</ele>
        <time>2011-03-20T14:50:36Z</time>
      </trkpt>
      <trkpt lat="44.72099" lon="-0.14362">
        <ele>64</ele>
        <time>2011-03-20T14:50:46Z</time>
      </trkpt>
      <trkpt lat="44.72107" lon="-0.1435">
        <ele>64</ele>
        <time>2011-03-20T14:50:55Z</time>
      </trkpt>
      <trkpt lat="44.72115" lon="-0.14337">
        <ele>64</ele>
        <time>2011-03-20T14:51:05Z</time>
      </trkpt>
      <trkpt lat="44.72122" lon="-0.14326">
        <ele>64</ele>
        <time>2011-03-20T14:51:14Z</time>
      </trkpt>
      <trkpt lat="44.72133" lon="-0.14315">
        <ele>65</ele>
        <time>2011-03-20T14:51:24Z</time>
      </trkpt>
      <trkpt lat="44.72141" lon="-0.14303">
        <ele>65</ele>
        <time>2011-03-20T14:51:34Z</time>
      </trkpt>
      <trkpt lat="44.72151" lon="-0.14291">
        <ele>65</ele>
        <time>2011-03-20T14:51:44Z</time>
      </trkpt>
      <trkpt lat="44.7216" lon="-0.1428">
        <ele>66</ele>
        <time>2011-03-20T14:51:53Z</time>
      </trkpt>
      <trkpt lat="44.72169" lon="-0.14271">
        <ele>66</ele>
        <time>2011-03-20T14:52:02Z</time>
      </trkpt>
      <trkpt lat="44.72178" lon="-0.14259">
        <ele>66</ele>
        <time>2011-03-20T14:52:12Z</time>
      </trkpt>
      <trkpt lat="44.72186" lon="-0.14246">
        <ele>66</ele>
        <time>2011-03-20T14:52:22Z</time>
      </trkpt>
      <trkpt lat="44.72193" lon="-0.14234">
        <ele>67</ele>
        <time>2011-03-20T14:52:31Z</time>
      </trkpt>
      <trkpt lat="44.72199" lon="-0.14222">
        <ele>67</ele>
        <time>2011-03-20T14:52:40Z</time>
      </trkpt>
      <trkpt lat="44.72205" lon="-0.14209">
        <ele>67</ele>
        <time>2011-03-20T14:52:49Z</time>
      </trkpt>
      <trkpt lat="44.72211" lon="-0.14195">
        <ele>67</ele>
        <time>2011-03-20T14:52:58Z</time>
      </trkpt>
      <trkpt lat="44.72217" lon="-0.14181">
        <ele>67</ele>
        <time>2011-03-20T14:53:07Z</time>
      </trkpt>
      <trkpt lat="44.72224" lon="-0.14167">
        <ele>67</ele>
        <time>2011-03-20T14:53:16Z</time>
      </trkpt>
      <trkpt lat="44.72231" lon="-0.14153">
        <ele>67</ele>
        <time>2011-03-20T14:53:25Z</time>
      </trkpt>
      <trkpt lat="44.72235" lon="-0.14138">
        <ele>67</ele>
        <time>2011-03-20T14:53:34Z</time>
      </trkpt>
      <trkpt lat="44.72237" lon="-0.14123">
        <ele>67</ele>
        <time>2011-03-20T14:53:43Z</time>
      </trkpt>
      <trkpt lat="44.72239" lon="-0.14107">
        <ele>67</ele>
        <time>2011-03-20T14:53:52Z</time>
      </trkpt>
      <trkpt lat="44.72239" lon="-0.14091">
        <ele>67</ele>
        <time>2011-03-20T14:54:01Z</time>
      </trkpt>
      <trkpt lat="44.72238" lon="-0.14075">
        <ele>67</ele>
        <time>2011-03-20T14:54:10Z</time>
      </trkpt>
      <trkpt lat="44.72239" lon="-0.1406">
        <ele>69</ele>
        <time>2011-03-20T14:54:19Z</time>
      </trkpt>
      <trkpt lat="44.72244" lon="-0.14045">
        <ele>69</ele>
        <time>2011-03-20T14:54:29Z</time>
      </trkpt>
      <trkpt lat="44.72253" lon="-0.14035">
        <ele>69</ele>
        <time>2011-03-20T14:54:39Z</time>
      </trkpt>
      <trkpt lat="44.72258" lon="-0.14035">
        <ele>69</ele>
        <time>2011-03-20T14:54:49Z</time>
      </trkpt>
      <trkpt lat="44.72259" lon="-0.14034">
        <ele>69</ele>
        <time>2011-03-20T14:55:12Z</time>
      </trkpt>
      <trkpt lat="44.72264" lon="-0.14033">
        <ele>69</ele>
        <time>2011-03-20T14:55:24Z</time>
      </trkpt>
      <trkpt lat="44.72275" lon="-0.14026">
        <ele>69</ele>
        <time>2011-03-20T14:55:33Z</time>
      </trkpt>
      <trkpt lat="44.72286" lon="-0.14026">
        <ele>69</ele>
        <time>2011-03-20T14:55:42Z</time>
      </trkpt>
      <trkpt lat="44.72297" lon="-0.14024">
        <ele>69</ele>
        <time>2011-03-20T14:55:51Z</time>
      </trkpt>
      <trkpt lat="44.72309" lon="-0.14022">
        <ele>69</ele>
        <time>2011-03-20T14:56:00Z</time>
      </trkpt>
      <trkpt lat="44.72316" lon="-0.14013">
        <ele>69</ele>
        <time>2011-03-20T14:56:10Z</time>
      </trkpt>
      <trkpt lat="44.72328" lon="-0.14017">
        <ele>70</ele>
        <time>2011-03-20T14:56:19Z</time>
      </trkpt>
      <trkpt lat="44.7234" lon="-0.14015">
        <ele>70</ele>
        <time>2011-03-20T14:56:28Z</time>
      </trkpt>
      <trkpt lat="44.72351" lon="-0.14015">
        <ele>70</ele>
        <time>2011-03-20T14:56:37Z</time>
      </trkpt>
      <trkpt lat="44.72363" lon="-0.14015">
        <ele>72</ele>
        <time>2011-03-20T14:56:47Z</time>
      </trkpt>
      <trkpt lat="44.72376" lon="-0.14012">
        <ele>72</ele>
        <time>2011-03-20T14:56:56Z</time>
      </trkpt>
      <trkpt lat="44.72387" lon="-0.1401">
        <ele>72</ele>
        <time>2011-03-20T14:57:05Z</time>
      </trkpt>
      <trkpt lat="44.72398" lon="-0.14008">
        <ele>73</ele>
        <time>2011-03-20T14:57:15Z</time>
      </trkpt>
      <trkpt lat="44.7241" lon="-0.14004">
        <ele>74</ele>
        <time>2011-03-20T14:57:24Z</time>
      </trkpt>
      <trkpt lat="44.7242" lon="-0.13994">
        <ele>74</ele>
        <time>2011-03-20T14:57:33Z</time>
      </trkpt>
      <trkpt lat="44.72427" lon="-0.13981">
        <ele>74</ele>
        <time>2011-03-20T14:57:42Z</time>
      </trkpt>
      <trkpt lat="44.72432" lon="-0.13966">
        <ele>74</ele>
        <time>2011-03-20T14:57:51Z</time>
      </trkpt>
      <trkpt lat="44.72434" lon="-0.13951">
        <ele>74</ele>
        <time>2011-03-20T14:58:00Z</time>
      </trkpt>
      <trkpt lat="44.72435" lon="-0.1394">
        <ele>74</ele>
        <time>2011-03-20T14:58:09Z</time>
      </trkpt>
      <trkpt lat="44.72435" lon="-0.13924">
        <ele>74</ele>
        <time>2011-03-20T14:58:18Z</time>
      </trkpt>
      <trkpt lat="44.72437" lon="-0.13909">
        <ele>74</ele>
        <time>2011-03-20T14:58:27Z</time>
      </trkpt>
      <trkpt lat="44.72438" lon="-0.13895">
        <ele>74</ele>
        <time>2011-03-20T14:58:36Z</time>
      </trkpt>
      <trkpt lat="44.72439" lon="-0.1388">
        <ele>74</ele>
        <time>2011-03-20T14:58:45Z</time>
      </trkpt>
      <trkpt lat="44.72441" lon="-0.13867">
        <ele>74</ele>
        <time>2011-03-20T14:58:54Z</time>
      </trkpt>
      <trkpt lat="44.72441" lon="-0.13851">
        <ele>74</ele>
        <time>2011-03-20T14:59:03Z</time>
      </trkpt>
      <trkpt lat="44.72444" lon="-0.13836">
        <ele>74</ele>
        <time>2011-03-20T14:59:13Z</time>
      </trkpt>
      <trkpt lat="44.72444" lon="-0.1382">
        <ele>74</ele>
        <time>2011-03-20T14:59:22Z</time>
      </trkpt>
      <trkpt lat="44.72445" lon="-0.13805">
        <ele>74</ele>
        <time>2011-03-20T14:59:31Z</time>
      </trkpt>
      <trkpt lat="44.72448" lon="-0.13789">
        <ele>74</ele>
        <time>2011-03-20T14:59:40Z</time>
      </trkpt>
      <trkpt lat="44.72453" lon="-0.13774">
        <ele>74</ele>
        <time>2011-03-20T14:59:49Z</time>
      </trkpt>
      <trkpt lat="44.7246" lon="-0.13764">
        <ele>74</ele>
        <time>2011-03-20T14:59:58Z</time>
      </trkpt>
      <trkpt lat="44.7247" lon="-0.13759">
        <ele>73</ele>
        <time>2011-03-20T15:00:07Z</time>
      </trkpt>
      <trkpt lat="44.72482" lon="-0.13759">
        <ele>73</ele>
        <time>2011-03-20T15:00:16Z</time>
      </trkpt>
      <trkpt lat="44.72493" lon="-0.13761">
        <ele>73</ele>
        <time>2011-03-20T15:00:26Z</time>
      </trkpt>
      <trkpt lat="44.72504" lon="-0.13761">
        <ele>73</ele>
        <time>2011-03-20T15:00:35Z</time>
      </trkpt>
      <trkpt lat="44.72516" lon="-0.13759">
        <ele>73</ele>
        <time>2011-03-20T15:00:45Z</time>
      </trkpt>
      <trkpt lat="44.7253" lon="-0.13758">
        <ele>73</ele>
        <time>2011-03-20T15:00:54Z</time>
      </trkpt>
      <trkpt lat="44.72541" lon="-0.13755">
        <ele>73</ele>
        <time>2011-03-20T15:01:04Z</time>
      </trkpt>
      <trkpt lat="44.72552" lon="-0.13748">
        <ele>73</ele>
        <time>2011-03-20T15:01:13Z</time>
      </trkpt>
      <trkpt lat="44.72563" lon="-0.13739">
        <ele>73</ele>
        <time>2011-03-20T15:01:23Z</time>
      </trkpt>
      <trkpt lat="44.7257" lon="-0.13725">
        <ele>73</ele>
        <time>2011-03-20T15:01:32Z</time>
      </trkpt>
      <trkpt lat="44.72571" lon="-0.13707">
        <ele>72</ele>
        <time>2011-03-20T15:01:41Z</time>
      </trkpt>
      <trkpt lat="44.72573" lon="-0.1369">
        <ele>71</ele>
        <time>2011-03-20T15:01:50Z</time>
      </trkpt>
      <trkpt lat="44.72574" lon="-0.13673">
        <ele>71</ele>
        <time>2011-03-20T15:01:59Z</time>
      </trkpt>
      <trkpt lat="44.72573" lon="-0.13655">
        <ele>71</ele>
        <time>2011-03-20T15:02:08Z</time>
      </trkpt>
      <trkpt lat="44.72574" lon="-0.13638">
        <ele>71</ele>
        <time>2011-03-20T15:02:17Z</time>
      </trkpt>
      <trkpt lat="44.72574" lon="-0.13622">
        <ele>71</ele>
        <time>2011-03-20T15:02:26Z</time>
      </trkpt>
      <trkpt lat="44.72573" lon="-0.13606">
        <ele>71</ele>
        <time>2011-03-20T15:02:35Z</time>
      </trkpt>
      <trkpt lat="44.72574" lon="-0.13589">
        <ele>71</ele>
        <time>2011-03-20T15:02:44Z</time>
      </trkpt>
      <trkpt lat="44.72573" lon="-0.13573">
        <ele>71</ele>
        <time>2011-03-20T15:02:53Z</time>
      </trkpt>
      <trkpt lat="44.72575" lon="-0.13559">
        <ele>71</ele>
        <time>2011-03-20T15:03:02Z</time>
      </trkpt>
      <trkpt lat="44.72578" lon="-0.13542">
        <ele>71</ele>
        <time>2011-03-20T15:03:11Z</time>
      </trkpt>
      <trkpt lat="44.72579" lon="-0.13525">
        <ele>71</ele>
        <time>2011-03-20T15:03:20Z</time>
      </trkpt>
      <trkpt lat="44.7258" lon="-0.1351">
        <ele>71</ele>
        <time>2011-03-20T15:03:29Z</time>
      </trkpt>
      <trkpt lat="44.72584" lon="-0.13495">
        <ele>71</ele>
        <time>2011-03-20T15:03:38Z</time>
      </trkpt>
      <trkpt lat="44.7259" lon="-0.1348">
        <ele>71</ele>
        <time>2011-03-20T15:03:47Z</time>
      </trkpt>
      <trkpt lat="44.72594" lon="-0.13465">
        <ele>71</ele>
        <time>2011-03-20T15:03:56Z</time>
      </trkpt>
      <trkpt lat="44.72597" lon="-0.1345">
        <ele>71</ele>
        <time>2011-03-20T15:04:05Z</time>
      </trkpt>
      <trkpt lat="44.72603" lon="-0.13435">
        <ele>71</ele>
        <time>2011-03-20T15:04:14Z</time>
      </trkpt>
      <trkpt lat="44.72607" lon="-0.13421">
        <ele>71</ele>
        <time>2011-03-20T15:04:23Z</time>
      </trkpt>
      <trkpt lat="44.72612" lon="-0.13406">
        <ele>71</ele>
        <time>2011-03-20T15:04:32Z</time>
      </trkpt>
      <trkpt lat="44.72616" lon="-0.13391">
        <ele>71</ele>
        <time>2011-03-20T15:04:41Z</time>
      </trkpt>
      <trkpt lat="44.72621" lon="-0.13377">
        <ele>71</ele>
        <time>2011-03-20T15:04:50Z</time>
      </trkpt>
      <trkpt lat="44.72626" lon="-0.13362">
        <ele>71</ele>
        <time>2011-03-20T15:04:59Z</time>
      </trkpt>
      <trkpt lat="44.72629" lon="-0.13347">
        <ele>71</ele>
        <time>2011-03-20T15:05:08Z</time>
      </trkpt>
      <trkpt lat="44.72632" lon="-0.13332">
        <ele>71</ele>
        <time>2011-03-20T15:05:19Z</time>
      </trkpt>
      <trkpt lat="44.72632" lon="-0.13316">
        <ele>71</ele>
        <time>2011-03-20T15:05:28Z</time>
      </trkpt>
      <trkpt lat="44.72633" lon="-0.13299">
        <ele>71</ele>
        <time>2011-03-20T15:05:37Z</time>
      </trkpt>
      <trkpt lat="44.72625" lon="-0.13294">
        <ele>71</ele>
        <time>2011-03-20T15:05:49Z</time>
      </trkpt>
      <trkpt lat="44.72615" lon="-0.13301">
        <ele>71</ele>
        <time>2011-03-20T15:05:59Z</time>
      </trkpt>
      <trkpt lat="44.72604" lon="-0.13307">
        <ele>71</ele>
        <time>2011-03-20T15:06:13Z</time>
      </trkpt>
      <trkpt lat="44.72593" lon="-0.13311">
        <ele>71</ele>
        <time>2011-03-20T15:06:23Z</time>
      </trkpt>
      <trkpt lat="44.72579" lon="-0.13313">
        <ele>71</ele>
        <time>2011-03-20T15:06:33Z</time>
      </trkpt>
      <trkpt lat="44.72568" lon="-0.13313">
        <ele>71</ele>
        <time>2011-03-20T15:06:42Z</time>
      </trkpt>
      <trkpt lat="44.72554" lon="-0.13312">
        <ele>71</ele>
        <time>2011-03-20T15:06:52Z</time>
      </trkpt>
      <trkpt lat="44.72543" lon="-0.13312">
        <ele>71</ele>
        <time>2011-03-20T15:07:01Z</time>
      </trkpt>
      <trkpt lat="44.72531" lon="-0.13313">
        <ele>71</ele>
        <time>2011-03-20T15:07:10Z</time>
      </trkpt>
      <trkpt lat="44.72517" lon="-0.13313">
        <ele>71</ele>
        <time>2011-03-20T15:07:19Z</time>
      </trkpt>
      <trkpt lat="44.72505" lon="-0.13314">
        <ele>71</ele>
        <time>2011-03-20T15:07:30Z</time>
      </trkpt>
      <trkpt lat="44.72493" lon="-0.13315">
        <ele>71</ele>
        <time>2011-03-20T15:07:39Z</time>
      </trkpt>
      <trkpt lat="44.72483" lon="-0.13313">
        <ele>71</ele>
        <time>2011-03-20T15:07:48Z</time>
      </trkpt>
      <trkpt lat="44.72473" lon="-0.13306">
        <ele>71</ele>
        <time>2011-03-20T15:07:58Z</time>
      </trkpt>
      <trkpt lat="44.72471" lon="-0.13293">
        <ele>71</ele>
        <time>2011-03-20T15:08:07Z</time>
      </trkpt>
      <trkpt lat="44.72469" lon="-0.13278">
        <ele>71</ele>
        <time>2011-03-20T15:08:17Z</time>
      </trkpt>
      <trkpt lat="44.72466" lon="-0.13261">
        <ele>71</ele>
        <time>2011-03-20T15:08:26Z</time>
      </trkpt>
      <trkpt lat="44.72465" lon="-0.13245">
        <ele>71</ele>
        <time>2011-03-20T15:08:36Z</time>
      </trkpt>
      <trkpt lat="44.72465" lon="-0.13229">
        <ele>71</ele>
        <time>2011-03-20T15:08:45Z</time>
      </trkpt>
      <trkpt lat="44.72464" lon="-0.13211">
        <ele>71</ele>
        <time>2011-03-20T15:08:56Z</time>
      </trkpt>
      <trkpt lat="44.72463" lon="-0.13195">
        <ele>71</ele>
        <time>2011-03-20T15:09:08Z</time>
      </trkpt>
      <trkpt lat="44.72462" lon="-0.13178">
        <ele>71</ele>
        <time>2011-03-20T15:09:18Z</time>
      </trkpt>
      <trkpt lat="44.72461" lon="-0.13162">
        <ele>71</ele>
        <time>2011-03-20T15:09:28Z</time>
      </trkpt>
      <trkpt lat="44.72459" lon="-0.13145">
        <ele>71</ele>
        <time>2011-03-20T15:09:37Z</time>
      </trkpt>
      <trkpt lat="44.7246" lon="-0.13131">
        <ele>71</ele>
        <time>2011-03-20T15:09:46Z</time>
      </trkpt>
      <trkpt lat="44.72459" lon="-0.13114">
        <ele>70</ele>
        <time>2011-03-20T15:09:57Z</time>
      </trkpt>
      <trkpt lat="44.72457" lon="-0.13097">
        <ele>70</ele>
        <time>2011-03-20T15:10:06Z</time>
      </trkpt>
      <trkpt lat="44.72456" lon="-0.13083">
        <ele>70</ele>
        <time>2011-03-20T15:10:17Z</time>
      </trkpt>
      <trkpt lat="44.72456" lon="-0.13064">
        <ele>70</ele>
        <time>2011-03-20T15:10:26Z</time>
      </trkpt>
      <trkpt lat="44.72456" lon="-0.1305">
        <ele>70</ele>
        <time>2011-03-20T15:10:36Z</time>
      </trkpt>
      <trkpt lat="44.72455" lon="-0.13034">
        <ele>70</ele>
        <time>2011-03-20T15:10:45Z</time>
      </trkpt>
      <trkpt lat="44.72455" lon="-0.13018">
        <ele>70</ele>
        <time>2011-03-20T15:10:55Z</time>
      </trkpt>
      <trkpt lat="44.72458" lon="-0.13001">
        <ele>70</ele>
        <time>2011-03-20T15:11:08Z</time>
      </trkpt>
      <trkpt lat="44.72467" lon="-0.13001">
        <ele>69</ele>
        <time>2011-03-20T15:11:18Z</time>
      </trkpt>
      <trkpt lat="44.72477" lon="-0.13002">
        <ele>68</ele>
        <time>2011-03-20T15:11:28Z</time>
      </trkpt>
      <trkpt lat="44.72487" lon="-0.13003">
        <ele>68</ele>
        <time>2011-03-20T15:11:37Z</time>
      </trkpt>
      <trkpt lat="44.72497" lon="-0.12998">
        <ele>68</ele>
        <time>2011-03-20T15:11:47Z</time>
      </trkpt>
      <trkpt lat="44.72509" lon="-0.12996">
        <ele>68</ele>
        <time>2011-03-20T15:11:58Z</time>
      </trkpt>
      <trkpt lat="44.72523" lon="-0.12991">
        <ele>68</ele>
        <time>2011-03-20T15:12:10Z</time>
      </trkpt>
      <trkpt lat="44.72529" lon="-0.12975">
        <ele>68</ele>
        <time>2011-03-20T15:12:19Z</time>
      </trkpt>
      <trkpt lat="44.72529" lon="-0.12963">
        <ele>68</ele>
        <time>2011-03-20T15:12:29Z</time>
      </trkpt>
      <trkpt lat="44.7253" lon="-0.12948">
        <ele>68</ele>
        <time>2011-03-20T15:12:38Z</time>
      </trkpt>
      <trkpt lat="44.72533" lon="-0.12927">
        <ele>68</ele>
        <time>2011-03-20T15:12:48Z</time>
      </trkpt>
      <trkpt lat="44.72535" lon="-0.1291">
        <ele>68</ele>
        <time>2011-03-20T15:12:58Z</time>
      </trkpt>
      <trkpt lat="44.72535" lon="-0.12895">
        <ele>68</ele>
        <time>2011-03-20T15:13:09Z</time>
      </trkpt>
      <trkpt lat="44.72533" lon="-0.12877">
        <ele>68</ele>
        <time>2011-03-20T15:13:20Z</time>
      </trkpt>
      <trkpt lat="44.72533" lon="-0.1286">
        <ele>68</ele>
        <time>2011-03-20T15:13:29Z</time>
      </trkpt>
      <trkpt lat="44.72534" lon="-0.12845">
        <ele>68</ele>
        <time>2011-03-20T15:13:39Z</time>
      </trkpt>
      <trkpt lat="44.72535" lon="-0.12828">
        <ele>68</ele>
        <time>2011-03-20T15:13:49Z</time>
      </trkpt>
      <trkpt lat="44.72535" lon="-0.12813">
        <ele>68</ele>
        <time>2011-03-20T15:13:59Z</time>
      </trkpt>
      <trkpt lat="44.72536" lon="-0.12789">
        <ele>68</ele>
        <time>2011-03-20T15:14:11Z</time>
      </trkpt>
      <trkpt lat="44.72537" lon="-0.12773">
        <ele>68</ele>
        <time>2011-03-20T15:14:21Z</time>
      </trkpt>
      <trkpt lat="44.72538" lon="-0.12755">
        <ele>68</ele>
        <time>2011-03-20T15:14:31Z</time>
      </trkpt>
      <trkpt lat="44.72538" lon="-0.12741">
        <ele>68</ele>
        <time>2011-03-20T15:14:40Z</time>
      </trkpt>
      <trkpt lat="44.72538" lon="-0.12723">
        <ele>68</ele>
        <time>2011-03-20T15:14:51Z</time>
      </trkpt>
      <trkpt lat="44.72539" lon="-0.12705">
        <ele>68</ele>
        <time>2011-03-20T15:15:01Z</time>
      </trkpt>
      <trkpt lat="44.72538" lon="-0.12687">
        <ele>68</ele>
        <time>2011-03-20T15:15:12Z</time>
      </trkpt>
      <trkpt lat="44.7254" lon="-0.12671">
        <ele>68</ele>
        <time>2011-03-20T15:15:21Z</time>
      </trkpt>
      <trkpt lat="44.72541" lon="-0.12655">
        <ele>68</ele>
        <time>2011-03-20T15:15:30Z</time>
      </trkpt>
      <trkpt lat="44.72541" lon="-0.12642">
        <ele>69</ele>
        <time>2011-03-20T15:15:40Z</time>
      </trkpt>
      <trkpt lat="44.72542" lon="-0.12621">
        <ele>69</ele>
        <time>2011-03-20T15:15:51Z</time>
      </trkpt>
      <trkpt lat="44.72542" lon="-0.12608">
        <ele>69</ele>
        <time>2011-03-20T15:16:00Z</time>
      </trkpt>
      <trkpt lat="44.72541" lon="-0.12591">
        <ele>69</ele>
        <time>2011-03-20T15:16:09Z</time>
      </trkpt>
      <trkpt lat="44.72541" lon="-0.12575">
        <ele>69</ele>
        <time>2011-03-20T15:16:19Z</time>
      </trkpt>
      <trkpt lat="44.72542" lon="-0.12557">
        <ele>69</ele>
        <time>2011-03-20T15:16:30Z</time>
      </trkpt>
      <trkpt lat="44.72544" lon="-0.12541">
        <ele>70</ele>
        <time>2011-03-20T15:16:40Z</time>
      </trkpt>
      <trkpt lat="44.72546" lon="-0.12524">
        <ele>71</ele>
        <time>2011-03-20T15:16:51Z</time>
      </trkpt>
      <trkpt lat="44.72544" lon="-0.12504">
        <ele>72</ele>
        <time>2011-03-20T15:17:01Z</time>
      </trkpt>
      <trkpt lat="44.72545" lon="-0.12486">
        <ele>72</ele>
        <time>2011-03-20T15:17:12Z</time>
      </trkpt>
      <trkpt lat="44.72545" lon="-0.12469">
        <ele>72</ele>
        <time>2011-03-20T15:17:21Z</time>
      </trkpt>
      <trkpt lat="44.72546" lon="-0.12449">
        <ele>72</ele>
        <time>2011-03-20T15:17:32Z</time>
      </trkpt>
      <trkpt lat="44.72547" lon="-0.12434">
        <ele>72</ele>
        <time>2011-03-20T15:17:41Z</time>
      </trkpt>
      <trkpt lat="44.72549" lon="-0.12417">
        <ele>72</ele>
        <time>2011-03-20T15:17:52Z</time>
      </trkpt>
      <trkpt lat="44.72549" lon="-0.12398">
        <ele>72</ele>
        <time>2011-03-20T15:18:01Z</time>
      </trkpt>
      <trkpt lat="44.72549" lon="-0.12383">
        <ele>72</ele>
        <time>2011-03-20T15:18:11Z</time>
      </trkpt>
      <trkpt lat="44.72549" lon="-0.12366">
        <ele>72</ele>
        <time>2011-03-20T15:18:20Z</time>
      </trkpt>
      <trkpt lat="44.7255" lon="-0.1235">
        <ele>72</ele>
        <time>2011-03-20T15:18:30Z</time>
      </trkpt>
      <trkpt lat="44.72551" lon="-0.12329">
        <ele>72</ele>
        <time>2011-03-20T15:18:41Z</time>
      </trkpt>
      <trkpt lat="44.72552" lon="-0.12314">
        <ele>72</ele>
        <time>2011-03-20T15:18:50Z</time>
      </trkpt>
      <trkpt lat="44.72554" lon="-0.12297">
        <ele>72</ele>
        <time>2011-03-20T15:19:00Z</time>
      </trkpt>
      <trkpt lat="44.72554" lon="-0.12278">
        <ele>72</ele>
        <time>2011-03-20T15:19:11Z</time>
      </trkpt>
      <trkpt lat="44.72553" lon="-0.12263">
        <ele>72</ele>
        <time>2011-03-20T15:19:20Z</time>
      </trkpt>
      <trkpt lat="44.72553" lon="-0.12247">
        <ele>72</ele>
        <time>2011-03-20T15:19:30Z</time>
      </trkpt>
      <trkpt lat="44.72554" lon="-0.12228">
        <ele>70</ele>
        <time>2011-03-20T15:19:40Z</time>
      </trkpt>
      <trkpt lat="44.72555" lon="-0.12212">
        <ele>69</ele>
        <time>2011-03-20T15:19:49Z</time>
      </trkpt>
      <trkpt lat="44.72554" lon="-0.12199">
        <ele>68</ele>
        <time>2011-03-20T15:19:58Z</time>
      </trkpt>
      <trkpt lat="44.72556" lon="-0.12198">
        <ele>68</ele>
        <time>2011-03-20T15:20:14Z</time>
      </trkpt>
      <trkpt lat="44.72557" lon="-0.12196">
        <ele>67</ele>
        <time>2011-03-20T15:20:33Z</time>
      </trkpt>
      <trkpt lat="44.72558" lon="-0.12195">
        <ele>67</ele>
        <time>2011-03-20T15:20:52Z</time>
      </trkpt>
      <trkpt lat="44.72562" lon="-0.12185">
        <ele>67</ele>
        <time>2011-03-20T15:21:03Z</time>
      </trkpt>
      <trkpt lat="44.72563" lon="-0.12185">
        <ele>67</ele>
        <time>2011-03-20T15:21:28Z</time>
      </trkpt>
      <trkpt lat="44.72567" lon="-0.12189">
        <ele>67</ele>
        <time>2011-03-20T15:21:44Z</time>
      </trkpt>
      <trkpt lat="44.72568" lon="-0.12189">
        <ele>67</ele>
        <time>2011-03-20T15:21:58Z</time>
      </trkpt>
      <trkpt lat="44.72573" lon="-0.12186">
        <ele>67</ele>
        <time>2011-03-20T15:22:10Z</time>
      </trkpt>
      <trkpt lat="44.72582" lon="-0.12188">
        <ele>69</ele>
        <time>2011-03-20T15:22:20Z</time>
      </trkpt>
      <trkpt lat="44.72593" lon="-0.12191">
        <ele>69</ele>
        <time>2011-03-20T15:22:30Z</time>
      </trkpt>
      <trkpt lat="44.72604" lon="-0.12191">
        <ele>69</ele>
        <time>2011-03-20T15:22:39Z</time>
      </trkpt>
      <trkpt lat="44.72616" lon="-0.12193">
        <ele>69</ele>
        <time>2011-03-20T15:22:50Z</time>
      </trkpt>
      <trkpt lat="44.72627" lon="-0.12194">
        <ele>69</ele>
        <time>2011-03-20T15:22:59Z</time>
      </trkpt>
      <trkpt lat="44.72641" lon="-0.12196">
        <ele>70</ele>
        <time>2011-03-20T15:23:11Z</time>
      </trkpt>
      <trkpt lat="44.72652" lon="-0.12197">
        <ele>70</ele>
        <time>2011-03-20T15:23:20Z</time>
      </trkpt>
      <trkpt lat="44.72663" lon="-0.12197">
        <ele>71</ele>
        <time>2011-03-20T15:23:29Z</time>
      </trkpt>
      <trkpt lat="44.72675" lon="-0.12197">
        <ele>71</ele>
        <time>2011-03-20T15:23:38Z</time>
      </trkpt>
      <trkpt lat="44.72689" lon="-0.12198">
        <ele>71</ele>
        <time>2011-03-20T15:23:49Z</time>
      </trkpt>
      <trkpt lat="44.72701" lon="-0.12199">
        <ele>71</ele>
        <time>2011-03-20T15:23:59Z</time>
      </trkpt>
      <trkpt lat="44.72714" lon="-0.122">
        <ele>71</ele>
        <time>2011-03-20T15:24:11Z</time>
      </trkpt>
      <trkpt lat="44.72726" lon="-0.122">
        <ele>71</ele>
        <time>2011-03-20T15:24:20Z</time>
      </trkpt>
      <trkpt lat="44.72737" lon="-0.12201">
        <ele>71</ele>
        <time>2011-03-20T15:24:29Z</time>
      </trkpt>
      <trkpt lat="44.72748" lon="-0.12202">
        <ele>71</ele>
        <time>2011-03-20T15:24:39Z</time>
      </trkpt>
      <trkpt lat="44.72761" lon="-0.12202">
        <ele>73</ele>
        <time>2011-03-20T15:24:48Z</time>
      </trkpt>
      <trkpt lat="44.72772" lon="-0.12203">
        <ele>74</ele>
        <time>2011-03-20T15:24:57Z</time>
      </trkpt>
      <trkpt lat="44.72782" lon="-0.12204">
        <ele>76</ele>
        <time>2011-03-20T15:25:06Z</time>
      </trkpt>
      <trkpt lat="44.72793" lon="-0.12205">
        <ele>76</ele>
        <time>2011-03-20T15:25:15Z</time>
      </trkpt>
      <trkpt lat="44.72805" lon="-0.12206">
        <ele>76</ele>
        <time>2011-03-20T15:25:24Z</time>
      </trkpt>
      <trkpt lat="44.72816" lon="-0.12206">
        <ele>76</ele>
        <time>2011-03-20T15:25:33Z</time>
      </trkpt>
      <trkpt lat="44.72826" lon="-0.12207">
        <ele>77</ele>
        <time>2011-03-20T15:25:42Z</time>
      </trkpt>
      <trkpt lat="44.72837" lon="-0.12204">
        <ele>78</ele>
        <time>2011-03-20T15:25:52Z</time>
      </trkpt>
      <trkpt lat="44.72847" lon="-0.12201">
        <ele>80</ele>
        <time>2011-03-20T15:26:01Z</time>
      </trkpt>
      <trkpt lat="44.72858" lon="-0.122">
        <ele>80</ele>
        <time>2011-03-20T15:26:10Z</time>
      </trkpt>
      <trkpt lat="44.72869" lon="-0.12198">
        <ele>80</ele>
        <time>2011-03-20T15:26:19Z</time>
      </trkpt>
      <trkpt lat="44.72879" lon="-0.12196">
        <ele>80</ele>
        <time>2011-03-20T15:26:28Z</time>
      </trkpt>
      <trkpt lat="44.7289" lon="-0.12194">
        <ele>80</ele>
        <time>2011-03-20T15:26:38Z</time>
      </trkpt>
      <trkpt lat="44.72899" lon="-0.12193">
        <ele>80</ele>
        <time>2011-03-20T15:26:47Z</time>
      </trkpt>
      <trkpt lat="44.7291" lon="-0.12192">
        <ele>80</ele>
        <time>2011-03-20T15:26:56Z</time>
      </trkpt>
      <trkpt lat="44.72921" lon="-0.1219">
        <ele>80</ele>
        <time>2011-03-20T15:27:05Z</time>
      </trkpt>
      <trkpt lat="44.72932" lon="-0.12187">
        <ele>80</ele>
        <time>2011-03-20T15:27:15Z</time>
      </trkpt>
      <trkpt lat="44.72942" lon="-0.12185">
        <ele>80</ele>
        <time>2011-03-20T15:27:24Z</time>
      </trkpt>
      <trkpt lat="44.72952" lon="-0.12183">
        <ele>80</ele>
        <time>2011-03-20T15:27:33Z</time>
      </trkpt>
      <trkpt lat="44.72963" lon="-0.12179">
        <ele>80</ele>
        <time>2011-03-20T15:27:43Z</time>
      </trkpt>
      <trkpt lat="44.72974" lon="-0.12177">
        <ele>78</ele>
        <time>2011-03-20T15:27:53Z</time>
      </trkpt>
      <trkpt lat="44.72985" lon="-0.12176">
        <ele>78</ele>
        <time>2011-03-20T15:28:02Z</time>
      </trkpt>
      <trkpt lat="44.72996" lon="-0.12174">
        <ele>78</ele>
        <time>2011-03-20T15:28:12Z</time>
      </trkpt>
      <trkpt lat="44.73008" lon="-0.12173">
        <ele>78</ele>
        <time>2011-03-20T15:28:24Z</time>
      </trkpt>
      <trkpt lat="44.73017" lon="-0.12179">
        <ele>78</ele>
        <time>2011-03-20T15:28:33Z</time>
      </trkpt>
      <trkpt lat="44.73024" lon="-0.12195">
        <ele>78</ele>
        <time>2011-03-20T15:28:43Z</time>
      </trkpt>
      <trkpt lat="44.73027" lon="-0.1221">
        <ele>78</ele>
        <time>2011-03-20T15:28:53Z</time>
      </trkpt>
      <trkpt lat="44.73029" lon="-0.12225">
        <ele>78</ele>
        <time>2011-03-20T15:29:03Z</time>
      </trkpt>
      <trkpt lat="44.73033" lon="-0.12241">
        <ele>78</ele>
        <time>2011-03-20T15:29:12Z</time>
      </trkpt>
      <trkpt lat="44.73037" lon="-0.12261">
        <ele>78</ele>
        <time>2011-03-20T15:29:25Z</time>
      </trkpt>
      <trkpt lat="44.7304" lon="-0.12264">
        <ele>76</ele>
        <time>2011-03-20T15:29:41Z</time>
      </trkpt>
      <trkpt lat="44.73044" lon="-0.12282">
        <ele>75</ele>
        <time>2011-03-20T15:29:50Z</time>
      </trkpt>
      <trkpt lat="44.73049" lon="-0.12298">
        <ele>74</ele>
        <time>2011-03-20T15:29:59Z</time>
      </trkpt>
      <trkpt lat="44.73057" lon="-0.1231">
        <ele>72</ele>
        <time>2011-03-20T15:30:08Z</time>
      </trkpt>
      <trkpt lat="44.73067" lon="-0.12319">
        <ele>71</ele>
        <time>2011-03-20T15:30:19Z</time>
      </trkpt>
      <trkpt lat="44.73072" lon="-0.12316">
        <ele>70</ele>
        <time>2011-03-20T15:30:30Z</time>
      </trkpt>
      <trkpt lat="44.73073" lon="-0.12316">
        <ele>70</ele>
        <time>2011-03-20T15:30:43Z</time>
      </trkpt>
      <trkpt lat="44.73077" lon="-0.12327">
        <ele>70</ele>
        <time>2011-03-20T15:30:55Z</time>
      </trkpt>
      <trkpt lat="44.73088" lon="-0.12328">
        <ele>70</ele>
        <time>2011-03-20T15:31:06Z</time>
      </trkpt>
      <trkpt lat="44.73091" lon="-0.1233">
        <ele>70</ele>
        <time>2011-03-20T15:31:23Z</time>
      </trkpt>
      <trkpt lat="44.73094" lon="-0.12328">
        <ele>70</ele>
        <time>2011-03-20T15:31:34Z</time>
      </trkpt>
      <trkpt lat="44.73094" lon="-0.12326">
        <ele>70</ele>
        <time>2011-03-20T15:31:46Z</time>
      </trkpt>
      <trkpt lat="44.73095" lon="-0.12324">
        <ele>81</ele>
        <time>2011-03-20T15:32:34Z</time>
      </trkpt>
      <trkpt lat="44.73094" lon="-0.12326">
        <ele>80</ele>
        <time>2011-03-20T15:32:49Z</time>
      </trkpt>
      <trkpt lat="44.73094" lon="-0.12327">
        <ele>71</ele>
        <time>2011-03-20T15:33:24Z</time>
      </trkpt>
      <trkpt lat="44.73094" lon="-0.12325">
        <ele>71</ele>
        <time>2011-03-20T15:34:15Z</time>
      </trkpt>
      <trkpt lat="44.73099" lon="-0.12326">
        <ele>71</ele>
        <time>2011-03-20T15:34:27Z</time>
      </trkpt>
      <trkpt lat="44.73109" lon="-0.12327">
        <ele>71</ele>
        <time>2011-03-20T15:34:36Z</time>
      </trkpt>
      <trkpt lat="44.73122" lon="-0.12323">
        <ele>68</ele>
        <time>2011-03-20T15:34:47Z</time>
      </trkpt>
      <trkpt lat="44.73135" lon="-0.12317">
        <ele>66</ele>
        <time>2011-03-20T15:34:58Z</time>
      </trkpt>
      <trkpt lat="44.73146" lon="-0.12313">
        <ele>62</ele>
        <time>2011-03-20T15:35:09Z</time>
      </trkpt>
      <trkpt lat="44.73156" lon="-0.12313">
        <ele>61</ele>
        <time>2011-03-20T15:35:18Z</time>
      </trkpt>
      <trkpt lat="44.73169" lon="-0.12315">
        <ele>61</ele>
        <time>2011-03-20T15:35:27Z</time>
      </trkpt>
      <trkpt lat="44.73181" lon="-0.12319">
        <ele>61</ele>
        <time>2011-03-20T15:35:36Z</time>
      </trkpt>
      <trkpt lat="44.73192" lon="-0.12321">
        <ele>61</ele>
        <time>2011-03-20T15:35:45Z</time>
      </trkpt>
      <trkpt lat="44.73204" lon="-0.12326">
        <ele>61</ele>
        <time>2011-03-20T15:35:55Z</time>
      </trkpt>
      <trkpt lat="44.73216" lon="-0.12327">
        <ele>61</ele>
        <time>2011-03-20T15:36:05Z</time>
      </trkpt>
      <trkpt lat="44.73227" lon="-0.1233">
        <ele>64</ele>
        <time>2011-03-20T15:36:14Z</time>
      </trkpt>
      <trkpt lat="44.73238" lon="-0.12329">
        <ele>67</ele>
        <time>2011-03-20T15:36:23Z</time>
      </trkpt>
      <trkpt lat="44.73249" lon="-0.12327">
        <ele>69</ele>
        <time>2011-03-20T15:36:32Z</time>
      </trkpt>
      <trkpt lat="44.73261" lon="-0.12326">
        <ele>69</ele>
        <time>2011-03-20T15:36:41Z</time>
      </trkpt>
      <trkpt lat="44.7327" lon="-0.12327">
        <ele>69</ele>
        <time>2011-03-20T15:36:50Z</time>
      </trkpt>
      <trkpt lat="44.7328" lon="-0.12326">
        <ele>69</ele>
        <time>2011-03-20T15:36:59Z</time>
      </trkpt>
      <trkpt lat="44.73287" lon="-0.12327">
        <ele>69</ele>
        <time>2011-03-20T15:37:10Z</time>
      </trkpt>
      <trkpt lat="44.73285" lon="-0.12328">
        <ele>70</ele>
        <time>2011-03-20T15:37:29Z</time>
      </trkpt>
      <trkpt lat="44.73296" lon="-0.12328">
        <ele>70</ele>
        <time>2011-03-20T15:37:38Z</time>
      </trkpt>
      <trkpt lat="44.73307" lon="-0.12328">
        <ele>70</ele>
        <time>2011-03-20T15:37:47Z</time>
      </trkpt>
      <trkpt lat="44.7332" lon="-0.12328">
        <ele>70</ele>
        <time>2011-03-20T15:37:56Z</time>
      </trkpt>
      <trkpt lat="44.73333" lon="-0.12328">
        <ele>70</ele>
        <time>2011-03-20T15:38:05Z</time>
      </trkpt>
      <trkpt lat="44.73344" lon="-0.12328">
        <ele>71</ele>
        <time>2011-03-20T15:38:14Z</time>
      </trkpt>
      <trkpt lat="44.73356" lon="-0.12327">
        <ele>72</ele>
        <time>2011-03-20T15:38:23Z</time>
      </trkpt>
      <trkpt lat="44.73368" lon="-0.12329">
        <ele>73</ele>
        <time>2011-03-20T15:38:32Z</time>
      </trkpt>
      <trkpt lat="44.73379" lon="-0.12329">
        <ele>73</ele>
        <time>2011-03-20T15:38:41Z</time>
      </trkpt>
      <trkpt lat="44.73391" lon="-0.1233">
        <ele>74</ele>
        <time>2011-03-20T15:38:50Z</time>
      </trkpt>
      <trkpt lat="44.73404" lon="-0.12329">
        <ele>74</ele>
        <time>2011-03-20T15:38:59Z</time>
      </trkpt>
      <trkpt lat="44.73416" lon="-0.12329">
        <ele>74</ele>
        <time>2011-03-20T15:39:08Z</time>
      </trkpt>
      <trkpt lat="44.73426" lon="-0.12329">
        <ele>75</ele>
        <time>2011-03-20T15:39:17Z</time>
      </trkpt>
      <trkpt lat="44.73438" lon="-0.12329">
        <ele>76</ele>
        <time>2011-03-20T15:39:26Z</time>
      </trkpt>
      <trkpt lat="44.73448" lon="-0.12329">
        <ele>77</ele>
        <time>2011-03-20T15:39:36Z</time>
      </trkpt>
      <trkpt lat="44.73453" lon="-0.12328">
        <ele>77</ele>
        <time>2011-03-20T15:39:49Z</time>
      </trkpt>
      <trkpt lat="44.73455" lon="-0.12328">
        <ele>77</ele>
        <time>2011-03-20T15:39:59Z</time>
      </trkpt>
      <trkpt lat="44.73459" lon="-0.12324">
        <ele>77</ele>
        <time>2011-03-20T15:40:11Z</time>
      </trkpt>
      <trkpt lat="44.73462" lon="-0.12313">
        <ele>77</ele>
        <time>2011-03-20T15:40:20Z</time>
      </trkpt>
      <trkpt lat="44.73465" lon="-0.12299">
        <ele>77</ele>
        <time>2011-03-20T15:40:29Z</time>
      </trkpt>
      <trkpt lat="44.73468" lon="-0.12283">
        <ele>77</ele>
        <time>2011-03-20T15:40:39Z</time>
      </trkpt>
      <trkpt lat="44.73471" lon="-0.12268">
        <ele>77</ele>
        <time>2011-03-20T15:40:48Z</time>
      </trkpt>
      <trkpt lat="44.73473" lon="-0.12253">
        <ele>77</ele>
        <time>2011-03-20T15:40:57Z</time>
      </trkpt>
      <trkpt lat="44.73475" lon="-0.12239">
        <ele>77</ele>
        <time>2011-03-20T15:41:06Z</time>
      </trkpt>
      <trkpt lat="44.73476" lon="-0.12224">
        <ele>77</ele>
        <time>2011-03-20T15:41:15Z</time>
      </trkpt>
      <trkpt lat="44.73477" lon="-0.12209">
        <ele>78</ele>
        <time>2011-03-20T15:41:25Z</time>
      </trkpt>
      <trkpt lat="44.73481" lon="-0.122">
        <ele>79</ele>
        <time>2011-03-20T15:41:35Z</time>
      </trkpt>
      <trkpt lat="44.73487" lon="-0.12193">
        <ele>79</ele>
        <time>2011-03-20T15:41:44Z</time>
      </trkpt>
      <trkpt lat="44.73493" lon="-0.12187">
        <ele>79</ele>
        <time>2011-03-20T15:41:54Z</time>
      </trkpt>
      <trkpt lat="44.73501" lon="-0.12183">
        <ele>79</ele>
        <time>2011-03-20T15:42:04Z</time>
      </trkpt>
      <trkpt lat="44.73512" lon="-0.12181">
        <ele>78</ele>
        <time>2011-03-20T15:42:14Z</time>
      </trkpt>
      <trkpt lat="44.73523" lon="-0.12178">
        <ele>76</ele>
        <time>2011-03-20T15:42:24Z</time>
      </trkpt>
      <trkpt lat="44.73536" lon="-0.12178">
        <ele>76</ele>
        <time>2011-03-20T15:42:34Z</time>
      </trkpt>
      <trkpt lat="44.73546" lon="-0.12176">
        <ele>76</ele>
        <time>2011-03-20T15:42:43Z</time>
      </trkpt>
      <trkpt lat="44.73555" lon="-0.12175">
        <ele>76</ele>
        <time>2011-03-20T15:42:52Z</time>
      </trkpt>
      <trkpt lat="44.73564" lon="-0.12171">
        <ele>70</ele>
        <time>2011-03-20T15:43:01Z</time>
      </trkpt>
      <trkpt lat="44.73577" lon="-0.12169">
        <ele>67</ele>
        <time>2011-03-20T15:43:10Z</time>
      </trkpt>
      <trkpt lat="44.73586" lon="-0.12167">
        <ele>67</ele>
        <time>2011-03-20T15:43:19Z</time>
      </trkpt>
      <trkpt lat="44.73595" lon="-0.12159">
        <ele>67</ele>
        <time>2011-03-20T15:43:28Z</time>
      </trkpt>
      <trkpt lat="44.73604" lon="-0.1215">
        <ele>67</ele>
        <time>2011-03-20T15:43:37Z</time>
      </trkpt>
      <trkpt lat="44.73616" lon="-0.12149">
        <ele>67</ele>
        <time>2011-03-20T15:43:46Z</time>
      </trkpt>
      <trkpt lat="44.73628" lon="-0.1215">
        <ele>68</ele>
        <time>2011-03-20T15:43:56Z</time>
      </trkpt>
      <trkpt lat="44.73639" lon="-0.12151">
        <ele>68</ele>
        <time>2011-03-20T15:44:06Z</time>
      </trkpt>
      <trkpt lat="44.73651" lon="-0.12154">
        <ele>68</ele>
        <time>2011-03-20T15:44:16Z</time>
      </trkpt>
      <trkpt lat="44.73661" lon="-0.12156">
        <ele>68</ele>
        <time>2011-03-20T15:44:25Z</time>
      </trkpt>
      <trkpt lat="44.73673" lon="-0.12159">
        <ele>69</ele>
        <time>2011-03-20T15:44:35Z</time>
      </trkpt>
      <trkpt lat="44.73685" lon="-0.1216">
        <ele>70</ele>
        <time>2011-03-20T15:44:45Z</time>
      </trkpt>
      <trkpt lat="44.73699" lon="-0.12164">
        <ele>73</ele>
        <time>2011-03-20T15:44:57Z</time>
      </trkpt>
      <trkpt lat="44.73715" lon="-0.12166">
        <ele>73</ele>
        <time>2011-03-20T15:45:08Z</time>
      </trkpt>
      <trkpt lat="44.73725" lon="-0.12168">
        <ele>73</ele>
        <time>2011-03-20T15:45:20Z</time>
      </trkpt>
      <trkpt lat="44.73734" lon="-0.12173">
        <ele>73</ele>
        <time>2011-03-20T15:45:33Z</time>
      </trkpt>
      <trkpt lat="44.7374" lon="-0.12177">
        <ele>74</ele>
        <time>2011-03-20T15:45:45Z</time>
      </trkpt>
      <trkpt lat="44.73741" lon="-0.12176">
        <ele>76</ele>
        <time>2011-03-20T15:46:12Z</time>
      </trkpt>
      <trkpt lat="44.73736" lon="-0.12175">
        <ele>76</ele>
        <time>2011-03-20T15:46:24Z</time>
      </trkpt>
      <trkpt lat="44.73736" lon="-0.12175">
        <ele>76</ele>
        <time>2011-03-20T15:46:37Z</time>
      </trkpt>
      <trkpt lat="44.73737" lon="-0.12184">
        <ele>76</ele>
        <time>2011-03-20T15:46:50Z</time>
      </trkpt>
      <trkpt lat="44.73735" lon="-0.12193">
        <ele>76</ele>
        <time>2011-03-20T15:46:59Z</time>
      </trkpt>
      <trkpt lat="44.73735" lon="-0.12199">
        <ele>76</ele>
        <time>2011-03-20T15:47:11Z</time>
      </trkpt>
      <trkpt lat="44.73739" lon="-0.12204">
        <ele>77</ele>
        <time>2011-03-20T15:47:26Z</time>
      </trkpt>
      <trkpt lat="44.73739" lon="-0.12215">
        <ele>78</ele>
        <time>2011-03-20T15:47:36Z</time>
      </trkpt>
      <trkpt lat="44.73736" lon="-0.12229">
        <ele>78</ele>
        <time>2011-03-20T15:47:47Z</time>
      </trkpt>
      <trkpt lat="44.73731" lon="-0.12249">
        <ele>77</ele>
        <time>2011-03-20T15:48:00Z</time>
      </trkpt>
      <trkpt lat="44.7373" lon="-0.12263">
        <ele>74</ele>
        <time>2011-03-20T15:48:09Z</time>
      </trkpt>
      <trkpt lat="44.73726" lon="-0.12282">
        <ele>74</ele>
        <time>2011-03-20T15:48:18Z</time>
      </trkpt>
      <trkpt lat="44.73722" lon="-0.12299">
        <ele>74</ele>
        <time>2011-03-20T15:48:27Z</time>
      </trkpt>
      <trkpt lat="44.73719" lon="-0.12313">
        <ele>74</ele>
        <time>2011-03-20T15:48:36Z</time>
      </trkpt>
      <trkpt lat="44.73717" lon="-0.1233">
        <ele>74</ele>
        <time>2011-03-20T15:48:45Z</time>
      </trkpt>
      <trkpt lat="44.73713" lon="-0.12345">
        <ele>74</ele>
        <time>2011-03-20T15:48:54Z</time>
      </trkpt>
      <trkpt lat="44.73709" lon="-0.1236">
        <ele>74</ele>
        <time>2011-03-20T15:49:03Z</time>
      </trkpt>
      <trkpt lat="44.73707" lon="-0.12376">
        <ele>74</ele>
        <time>2011-03-20T15:49:12Z</time>
      </trkpt>
      <trkpt lat="44.73706" lon="-0.12393">
        <ele>76</ele>
        <time>2011-03-20T15:49:21Z</time>
      </trkpt>
      <trkpt lat="44.73706" lon="-0.12407">
        <ele>77</ele>
        <time>2011-03-20T15:49:30Z</time>
      </trkpt>
      <trkpt lat="44.73706" lon="-0.12424">
        <ele>77</ele>
        <time>2011-03-20T15:49:40Z</time>
      </trkpt>
      <trkpt lat="44.73706" lon="-0.1244">
        <ele>77</ele>
        <time>2011-03-20T15:49:50Z</time>
      </trkpt>
      <trkpt lat="44.73709" lon="-0.12453">
        <ele>77</ele>
        <time>2011-03-20T15:49:59Z</time>
      </trkpt>
      <trkpt lat="44.73707" lon="-0.12469">
        <ele>77</ele>
        <time>2011-03-20T15:50:08Z</time>
      </trkpt>
      <trkpt lat="44.73708" lon="-0.12475">
        <ele>77</ele>
        <time>2011-03-20T15:50:17Z</time>
      </trkpt>
      <trkpt lat="44.73712" lon="-0.12492">
        <ele>77</ele>
        <time>2011-03-20T15:50:26Z</time>
      </trkpt>
      <trkpt lat="44.73714" lon="-0.12501">
        <ele>77</ele>
        <time>2011-03-20T15:50:35Z</time>
      </trkpt>
      <trkpt lat="44.73719" lon="-0.12517">
        <ele>77</ele>
        <time>2011-03-20T15:50:44Z</time>
      </trkpt>
      <trkpt lat="44.73725" lon="-0.12534">
        <ele>77</ele>
        <time>2011-03-20T15:50:53Z</time>
      </trkpt>
      <trkpt lat="44.73731" lon="-0.12553">
        <ele>77</ele>
        <time>2011-03-20T15:51:03Z</time>
      </trkpt>
      <trkpt lat="44.73737" lon="-0.12568">
        <ele>77</ele>
        <time>2011-03-20T15:51:12Z</time>
      </trkpt>
      <trkpt lat="44.73744" lon="-0.12583">
        <ele>77</ele>
        <time>2011-03-20T15:51:21Z</time>
      </trkpt>
      <trkpt lat="44.73752" lon="-0.12598">
        <ele>74</ele>
        <time>2011-03-20T15:51:30Z</time>
      </trkpt>
      <trkpt lat="44.73758" lon="-0.12612">
        <ele>72</ele>
        <time>2011-03-20T15:51:39Z</time>
      </trkpt>
      <trkpt lat="44.73764" lon="-0.12632">
        <ele>70</ele>
        <time>2011-03-20T15:51:49Z</time>
      </trkpt>
      <trkpt lat="44.7377" lon="-0.1265">
        <ele>70</ele>
        <time>2011-03-20T15:51:59Z</time>
      </trkpt>
      <trkpt lat="44.73774" lon="-0.12665">
        <ele>70</ele>
        <time>2011-03-20T15:52:08Z</time>
      </trkpt>
      <trkpt lat="44.73779" lon="-0.12679">
        <ele>70</ele>
        <time>2011-03-20T15:52:17Z</time>
      </trkpt>
      <trkpt lat="44.73785" lon="-0.12693">
        <ele>70</ele>
        <time>2011-03-20T15:52:26Z</time>
      </trkpt>
      <trkpt lat="44.7379" lon="-0.12707">
        <ele>70</ele>
        <time>2011-03-20T15:52:35Z</time>
      </trkpt>
      <trkpt lat="44.73797" lon="-0.12722">
        <ele>70</ele>
        <time>2011-03-20T15:52:44Z</time>
      </trkpt>
      <trkpt lat="44.73802" lon="-0.12737">
        <ele>70</ele>
        <time>2011-03-20T15:52:53Z</time>
      </trkpt>
      <trkpt lat="44.73807" lon="-0.12752">
        <ele>70</ele>
        <time>2011-03-20T15:53:02Z</time>
      </trkpt>
      <trkpt lat="44.7381" lon="-0.12767">
        <ele>70</ele>
        <time>2011-03-20T15:53:11Z</time>
      </trkpt>
      <trkpt lat="44.73814" lon="-0.12783">
        <ele>70</ele>
        <time>2011-03-20T15:53:20Z</time>
      </trkpt>
      <trkpt lat="44.73816" lon="-0.12798">
        <ele>70</ele>
        <time>2011-03-20T15:53:29Z</time>
      </trkpt>
      <trkpt lat="44.7382" lon="-0.12814">
        <ele>71</ele>
        <time>2011-03-20T15:53:39Z</time>
      </trkpt>
      <trkpt lat="44.73824" lon="-0.12829">
        <ele>71</ele>
        <time>2011-03-20T15:53:48Z</time>
      </trkpt>
      <trkpt lat="44.73827" lon="-0.12844">
        <ele>71</ele>
        <time>2011-03-20T15:53:57Z</time>
      </trkpt>
      <trkpt lat="44.7383" lon="-0.12857">
        <ele>71</ele>
        <time>2011-03-20T15:54:06Z</time>
      </trkpt>
      <trkpt lat="44.73833" lon="-0.12873">
        <ele>71</ele>
        <time>2011-03-20T15:54:15Z</time>
      </trkpt>
      <trkpt lat="44.73837" lon="-0.12888">
        <ele>72</ele>
        <time>2011-03-20T15:54:24Z</time>
      </trkpt>
      <trkpt lat="44.73841" lon="-0.12903">
        <ele>72</ele>
        <time>2011-03-20T15:54:34Z</time>
      </trkpt>
      <trkpt lat="44.73846" lon="-0.12917">
        <ele>72</ele>
        <time>2011-03-20T15:54:43Z</time>
      </trkpt>
      <trkpt lat="44.73849" lon="-0.12932">
        <ele>72</ele>
        <time>2011-03-20T15:54:52Z</time>
      </trkpt>
      <trkpt lat="44.73853" lon="-0.12946">
        <ele>72</ele>
        <time>2011-03-20T15:55:01Z</time>
      </trkpt>
      <trkpt lat="44.73856" lon="-0.12961">
        <ele>72</ele>
        <time>2011-03-20T15:55:10Z</time>
      </trkpt>
      <trkpt lat="44.7386" lon="-0.12976">
        <ele>72</ele>
        <time>2011-03-20T15:55:19Z</time>
      </trkpt>
      <trkpt lat="44.73864" lon="-0.1299">
        <ele>72</ele>
        <time>2011-03-20T15:55:28Z</time>
      </trkpt>
      <trkpt lat="44.73865" lon="-0.13002">
        <ele>72</ele>
        <time>2011-03-20T15:55:37Z</time>
      </trkpt>
      <trkpt lat="44.73869" lon="-0.13017">
        <ele>72</ele>
        <time>2011-03-20T15:55:46Z</time>
      </trkpt>
      <trkpt lat="44.73873" lon="-0.13032">
        <ele>72</ele>
        <time>2011-03-20T15:55:55Z</time>
      </trkpt>
      <trkpt lat="44.73876" lon="-0.13047">
        <ele>72</ele>
        <time>2011-03-20T15:56:04Z</time>
      </trkpt>
      <trkpt lat="44.7388" lon="-0.13061">
        <ele>72</ele>
        <time>2011-03-20T15:56:13Z</time>
      </trkpt>
      <trkpt lat="44.73883" lon="-0.13075">
        <ele>72</ele>
        <time>2011-03-20T15:56:22Z</time>
      </trkpt>
      <trkpt lat="44.73888" lon="-0.13089">
        <ele>72</ele>
        <time>2011-03-20T15:56:31Z</time>
      </trkpt>
      <trkpt lat="44.73891" lon="-0.13106">
        <ele>72</ele>
        <time>2011-03-20T15:56:43Z</time>
      </trkpt>
      <trkpt lat="44.7389" lon="-0.13126">
        <ele>72</ele>
        <time>2011-03-20T15:56:54Z</time>
      </trkpt>
      <trkpt lat="44.73889" lon="-0.13147">
        <ele>72</ele>
        <time>2011-03-20T15:57:05Z</time>
      </trkpt>
      <trkpt lat="44.73889" lon="-0.13166">
        <ele>72</ele>
        <time>2011-03-20T15:57:15Z</time>
      </trkpt>
      <trkpt lat="44.73889" lon="-0.13181">
        <ele>72</ele>
        <time>2011-03-20T15:57:25Z</time>
      </trkpt>
      <trkpt lat="44.73888" lon="-0.13198">
        <ele>72</ele>
        <time>2011-03-20T15:57:35Z</time>
      </trkpt>
      <trkpt lat="44.73889" lon="-0.13212">
        <ele>70</ele>
        <time>2011-03-20T15:57:46Z</time>
      </trkpt>
      <trkpt lat="44.73891" lon="-0.13231">
        <ele>68</ele>
        <time>2011-03-20T15:57:55Z</time>
      </trkpt>
      <trkpt lat="44.73894" lon="-0.13245">
        <ele>68</ele>
        <time>2011-03-20T15:58:11Z</time>
      </trkpt>
      <trkpt lat="44.73894" lon="-0.13263">
        <ele>68</ele>
        <time>2011-03-20T15:58:20Z</time>
      </trkpt>
      <trkpt lat="44.73895" lon="-0.13278">
        <ele>68</ele>
        <time>2011-03-20T15:58:29Z</time>
      </trkpt>
      <trkpt lat="44.73894" lon="-0.13294">
        <ele>68</ele>
        <time>2011-03-20T15:58:39Z</time>
      </trkpt>
      <trkpt lat="44.73895" lon="-0.13312">
        <ele>68</ele>
        <time>2011-03-20T15:58:49Z</time>
      </trkpt>
      <trkpt lat="44.73893" lon="-0.13325">
        <ele>68</ele>
        <time>2011-03-20T15:58:58Z</time>
      </trkpt>
      <trkpt lat="44.73892" lon="-0.1334">
        <ele>68</ele>
        <time>2011-03-20T15:59:08Z</time>
      </trkpt>
      <trkpt lat="44.73893" lon="-0.13357">
        <ele>68</ele>
        <time>2011-03-20T15:59:17Z</time>
      </trkpt>
      <trkpt lat="44.73891" lon="-0.13372">
        <ele>67</ele>
        <time>2011-03-20T15:59:26Z</time>
      </trkpt>
      <trkpt lat="44.73885" lon="-0.13383">
        <ele>66</ele>
        <time>2011-03-20T15:59:36Z</time>
      </trkpt>
      <trkpt lat="44.73882" lon="-0.13389">
        <ele>66</ele>
        <time>2011-03-20T15:59:45Z</time>
      </trkpt>
      <trkpt lat="44.73873" lon="-0.13403">
        <ele>65</ele>
        <time>2011-03-20T15:59:54Z</time>
      </trkpt>
      <trkpt lat="44.73866" lon="-0.13415">
        <ele>64</ele>
        <time>2011-03-20T16:00:03Z</time>
      </trkpt>
      <trkpt lat="44.73856" lon="-0.13425">
        <ele>63</ele>
        <time>2011-03-20T16:00:12Z</time>
      </trkpt>
      <trkpt lat="44.73847" lon="-0.13434">
        <ele>62</ele>
        <time>2011-03-20T16:00:22Z</time>
      </trkpt>
      <trkpt lat="44.73841" lon="-0.13447">
        <ele>62</ele>
        <time>2011-03-20T16:00:31Z</time>
      </trkpt>
      <trkpt lat="44.73839" lon="-0.13462">
        <ele>62</ele>
        <time>2011-03-20T16:00:40Z</time>
      </trkpt>
      <trkpt lat="44.73838" lon="-0.13478">
        <ele>62</ele>
        <time>2011-03-20T16:00:49Z</time>
      </trkpt>
      <trkpt lat="44.73837" lon="-0.13491">
        <ele>61</ele>
        <time>2011-03-20T16:00:59Z</time>
      </trkpt>
      <trkpt lat="44.73837" lon="-0.13507">
        <ele>60</ele>
        <time>2011-03-20T16:01:08Z</time>
      </trkpt>
      <trkpt lat="44.73837" lon="-0.13518">
        <ele>59</ele>
        <time>2011-03-20T16:01:17Z</time>
      </trkpt>
      <trkpt lat="44.73842" lon="-0.13526">
        <ele>58</ele>
        <time>2011-03-20T16:01:27Z</time>
      </trkpt>
      <trkpt lat="44.73852" lon="-0.13527">
        <ele>58</ele>
        <time>2011-03-20T16:01:37Z</time>
      </trkpt>
      <trkpt lat="44.73862" lon="-0.13527">
        <ele>58</ele>
        <time>2011-03-20T16:01:46Z</time>
      </trkpt>
      <trkpt lat="44.73873" lon="-0.13527">
        <ele>58</ele>
        <time>2011-03-20T16:01:55Z</time>
      </trkpt>
      <trkpt lat="44.73883" lon="-0.13526">
        <ele>58</ele>
        <time>2011-03-20T16:02:04Z</time>
      </trkpt>
      <trkpt lat="44.73894" lon="-0.13527">
        <ele>58</ele>
        <time>2011-03-20T16:02:13Z</time>
      </trkpt>
      <trkpt lat="44.739" lon="-0.13527">
        <ele>58</ele>
        <time>2011-03-20T16:02:23Z</time>
      </trkpt>
      <trkpt lat="44.7391" lon="-0.13523">
        <ele>58</ele>
        <time>2011-03-20T16:02:32Z</time>
      </trkpt>
      <trkpt lat="44.73922" lon="-0.1352">
        <ele>58</ele>
        <time>2011-03-20T16:02:41Z</time>
      </trkpt>
      <trkpt lat="44.73934" lon="-0.13516">
        <ele>58</ele>
        <time>2011-03-20T16:02:50Z</time>
      </trkpt>
      <trkpt lat="44.73943" lon="-0.13513">
        <ele>60</ele>
        <time>2011-03-20T16:02:59Z</time>
      </trkpt>
      <trkpt lat="44.7395" lon="-0.13507">
        <ele>61</ele>
        <time>2011-03-20T16:03:08Z</time>
      </trkpt>
      <trkpt lat="44.73959" lon="-0.13506">
        <ele>61</ele>
        <time>2011-03-20T16:03:17Z</time>
      </trkpt>
      <trkpt lat="44.73966" lon="-0.13502">
        <ele>61</ele>
        <time>2011-03-20T16:03:27Z</time>
      </trkpt>
      <trkpt lat="44.73977" lon="-0.13498">
        <ele>65</ele>
        <time>2011-03-20T16:03:36Z</time>
      </trkpt>
      <trkpt lat="44.7399" lon="-0.13495">
        <ele>65</ele>
        <time>2011-03-20T16:03:45Z</time>
      </trkpt>
      <trkpt lat="44.74001" lon="-0.13489">
        <ele>65</ele>
        <time>2011-03-20T16:03:55Z</time>
      </trkpt>
      <trkpt lat="44.74012" lon="-0.13484">
        <ele>65</ele>
        <time>2011-03-20T16:04:04Z</time>
      </trkpt>
      <trkpt lat="44.7402" lon="-0.13487">
        <ele>65</ele>
        <time>2011-03-20T16:04:14Z</time>
      </trkpt>
      <trkpt lat="44.7403" lon="-0.13491">
        <ele>65</ele>
        <time>2011-03-20T16:04:23Z</time>
      </trkpt>
      <trkpt lat="44.74038" lon="-0.13495">
        <ele>64</ele>
        <time>2011-03-20T16:04:32Z</time>
      </trkpt>
      <trkpt lat="44.74049" lon="-0.13502">
        <ele>63</ele>
        <time>2011-03-20T16:04:42Z</time>
      </trkpt>
      <trkpt lat="44.74058" lon="-0.1351">
        <ele>63</ele>
        <time>2011-03-20T16:04:52Z</time>
      </trkpt>
      <trkpt lat="44.74069" lon="-0.13516">
        <ele>63</ele>
        <time>2011-03-20T16:05:02Z</time>
      </trkpt>
      <trkpt lat="44.74075" lon="-0.13519">
        <ele>63</ele>
        <time>2011-03-20T16:05:21Z</time>
      </trkpt>
      <trkpt lat="44.74075" lon="-0.13521">
        <ele>63</ele>
        <time>2011-03-20T16:06:07Z</time>
      </trkpt>
      <trkpt lat="44.74076" lon="-0.13521">
        <ele>62</ele>
        <time>2011-03-20T16:06:29Z</time>
      </trkpt>
      <trkpt lat="44.74074" lon="-0.13521">
        <ele>62</ele>
        <time>2011-03-20T16:06:46Z</time>
      </trkpt>
      <trkpt lat="44.74075" lon="-0.13519">
        <ele>62</ele>
        <time>2011-03-20T16:06:59Z</time>
      </trkpt>
      <trkpt lat="44.74076" lon="-0.1352">
        <ele>62</ele>
        <time>2011-03-20T16:07:16Z</time>
      </trkpt>
      <trkpt lat="44.74077" lon="-0.1352">
        <ele>62</ele>
        <time>2011-03-20T16:07:31Z</time>
      </trkpt>
      <trkpt lat="44.74078" lon="-0.13521">
        <ele>62</ele>
        <time>2011-03-20T16:08:50Z</time>
      </trkpt>
      <trkpt lat="44.74078" lon="-0.13523">
        <ele>62</ele>
        <time>2011-03-20T16:09:16Z</time>
      </trkpt>
      <trkpt lat="44.74082" lon="-0.13524">
        <ele>62</ele>
        <time>2011-03-20T16:09:38Z</time>
      </trkpt>
      <trkpt lat="44.74091" lon="-0.13529">
        <ele>62</ele>
        <time>2011-03-20T16:09:47Z</time>
      </trkpt>
      <trkpt lat="44.74099" lon="-0.13532">
        <ele>61</ele>
        <time>2011-03-20T16:09:56Z</time>
      </trkpt>
      <trkpt lat="44.74102" lon="-0.13534">
        <ele>61</ele>
        <time>2011-03-20T16:10:07Z</time>
      </trkpt>
      <trkpt lat="44.74103" lon="-0.13535">
        <ele>61</ele>
        <time>2011-03-20T16:10:25Z</time>
      </trkpt>
      <trkpt lat="44.74105" lon="-0.13536">
        <ele>61</ele>
        <time>2011-03-20T16:10:37Z</time>
      </trkpt>
      <trkpt lat="44.74106" lon="-0.13535">
        <ele>61</ele>
        <time>2011-03-20T16:10:47Z</time>
      </trkpt>
      <trkpt lat="44.74113" lon="-0.13539">
        <ele>60</ele>
        <time>2011-03-20T16:10:56Z</time>
      </trkpt>
      <trkpt lat="44.74116" lon="-0.1354">
        <ele>60</ele>
        <time>2011-03-20T16:11:05Z</time>
      </trkpt>
      <trkpt lat="44.74125" lon="-0.13545">
        <ele>60</ele>
        <time>2011-03-20T16:11:14Z</time>
      </trkpt>
      <trkpt lat="44.74135" lon="-0.13551">
        <ele>60</ele>
        <time>2011-03-20T16:11:23Z</time>
      </trkpt>
      <trkpt lat="44.74144" lon="-0.13558">
        <ele>60</ele>
        <time>2011-03-20T16:11:32Z</time>
      </trkpt>
      <trkpt lat="44.74154" lon="-0.1357">
        <ele>60</ele>
        <time>2011-03-20T16:11:42Z</time>
      </trkpt>
      <trkpt lat="44.74158" lon="-0.13584">
        <ele>59</ele>
        <time>2011-03-20T16:11:51Z</time>
      </trkpt>
      <trkpt lat="44.74159" lon="-0.13602">
        <ele>59</ele>
        <time>2011-03-20T16:12:00Z</time>
      </trkpt>
      <trkpt lat="44.7416" lon="-0.13619">
        <ele>59</ele>
        <time>2011-03-20T16:12:09Z</time>
      </trkpt>
      <trkpt lat="44.74161" lon="-0.13636">
        <ele>59</ele>
        <time>2011-03-20T16:12:18Z</time>
      </trkpt>
      <trkpt lat="44.74162" lon="-0.13653">
        <ele>59</ele>
        <time>2011-03-20T16:12:27Z</time>
      </trkpt>
      <trkpt lat="44.74163" lon="-0.13669">
        <ele>59</ele>
        <time>2011-03-20T16:12:36Z</time>
      </trkpt>
      <trkpt lat="44.74166" lon="-0.13686">
        <ele>59</ele>
        <time>2011-03-20T16:12:45Z</time>
      </trkpt>
      <trkpt lat="44.74167" lon="-0.13702">
        <ele>59</ele>
        <time>2011-03-20T16:12:54Z</time>
      </trkpt>
      <trkpt lat="44.74168" lon="-0.1372">
        <ele>59</ele>
        <time>2011-03-20T16:13:03Z</time>
      </trkpt>
      <trkpt lat="44.7417" lon="-0.13737">
        <ele>59</ele>
        <time>2011-03-20T16:13:12Z</time>
      </trkpt>
      <trkpt lat="44.7417" lon="-0.13752">
        <ele>59</ele>
        <time>2011-03-20T16:13:21Z</time>
      </trkpt>
      <trkpt lat="44.74173" lon="-0.13772">
        <ele>59</ele>
        <time>2011-03-20T16:13:31Z</time>
      </trkpt>
      <trkpt lat="44.74174" lon="-0.13787">
        <ele>59</ele>
        <time>2011-03-20T16:13:40Z</time>
      </trkpt>
      <trkpt lat="44.74176" lon="-0.13805">
        <ele>59</ele>
        <time>2011-03-20T16:13:49Z</time>
      </trkpt>
      <trkpt lat="44.74177" lon="-0.13823">
        <ele>59</ele>
        <time>2011-03-20T16:13:58Z</time>
      </trkpt>
      <trkpt lat="44.74179" lon="-0.13842">
        <ele>59</ele>
        <time>2011-03-20T16:14:07Z</time>
      </trkpt>
      <trkpt lat="44.74179" lon="-0.1386">
        <ele>59</ele>
        <time>2011-03-20T16:14:16Z</time>
      </trkpt>
      <trkpt lat="44.7418" lon="-0.13879">
        <ele>60</ele>
        <time>2011-03-20T16:14:25Z</time>
      </trkpt>
      <trkpt lat="44.74181" lon="-0.13897">
        <ele>63</ele>
        <time>2011-03-20T16:14:34Z</time>
      </trkpt>
      <trkpt lat="44.74186" lon="-0.13914">
        <ele>63</ele>
        <time>2011-03-20T16:14:43Z</time>
      </trkpt>
      <trkpt lat="44.74194" lon="-0.13932">
        <ele>63</ele>
        <time>2011-03-20T16:14:53Z</time>
      </trkpt>
      <trkpt lat="44.74205" lon="-0.13945">
        <ele>63</ele>
        <time>2011-03-20T16:15:02Z</time>
      </trkpt>
      <trkpt lat="44.74215" lon="-0.13954">
        <ele>63</ele>
        <time>2011-03-20T16:15:11Z</time>
      </trkpt>
      <trkpt lat="44.74226" lon="-0.13962">
        <ele>62</ele>
        <time>2011-03-20T16:15:20Z</time>
      </trkpt>
      <trkpt lat="44.74236" lon="-0.1397">
        <ele>62</ele>
        <time>2011-03-20T16:15:29Z</time>
      </trkpt>
      <trkpt lat="44.74248" lon="-0.13977">
        <ele>59</ele>
        <time>2011-03-20T16:15:38Z</time>
      </trkpt>
      <trkpt lat="44.7426" lon="-0.13983">
        <ele>59</ele>
        <time>2011-03-20T16:15:47Z</time>
      </trkpt>
      <trkpt lat="44.74272" lon="-0.13994">
        <ele>59</ele>
        <time>2011-03-20T16:15:57Z</time>
      </trkpt>
      <trkpt lat="44.74276" lon="-0.14008">
        <ele>59</ele>
        <time>2011-03-20T16:16:06Z</time>
      </trkpt>
      <trkpt lat="44.74279" lon="-0.14025">
        <ele>59</ele>
        <time>2011-03-20T16:16:16Z</time>
      </trkpt>
      <trkpt lat="44.74284" lon="-0.14038">
        <ele>59</ele>
        <time>2011-03-20T16:16:25Z</time>
      </trkpt>
      <trkpt lat="44.74287" lon="-0.1405">
        <ele>59</ele>
        <time>2011-03-20T16:16:34Z</time>
      </trkpt>
      <trkpt lat="44.7429" lon="-0.14068">
        <ele>59</ele>
        <time>2011-03-20T16:16:45Z</time>
      </trkpt>
      <trkpt lat="44.74295" lon="-0.14083">
        <ele>59</ele>
        <time>2011-03-20T16:16:56Z</time>
      </trkpt>
      <trkpt lat="44.743" lon="-0.141">
        <ele>59</ele>
        <time>2011-03-20T16:17:05Z</time>
      </trkpt>
      <trkpt lat="44.74299" lon="-0.14106">
        <ele>59</ele>
        <time>2011-03-20T16:17:17Z</time>
      </trkpt>
      <trkpt lat="44.74299" lon="-0.1411">
        <ele>61</ele>
        <time>2011-03-20T16:17:26Z</time>
      </trkpt>
      <trkpt lat="44.74302" lon="-0.14127">
        <ele>62</ele>
        <time>2011-03-20T16:17:36Z</time>
      </trkpt>
      <trkpt lat="44.74306" lon="-0.14141">
        <ele>62</ele>
        <time>2011-03-20T16:17:47Z</time>
      </trkpt>
      <trkpt lat="44.7431" lon="-0.14158">
        <ele>62</ele>
        <time>2011-03-20T16:17:57Z</time>
      </trkpt>
      <trkpt lat="44.74313" lon="-0.14172">
        <ele>62</ele>
        <time>2011-03-20T16:18:07Z</time>
      </trkpt>
      <trkpt lat="44.74315" lon="-0.1419">
        <ele>62</ele>
        <time>2011-03-20T16:18:16Z</time>
      </trkpt>
      <trkpt lat="44.74318" lon="-0.14206">
        <ele>62</ele>
        <time>2011-03-20T16:18:26Z</time>
      </trkpt>
      <trkpt lat="44.74322" lon="-0.14222">
        <ele>63</ele>
        <time>2011-03-20T16:18:35Z</time>
      </trkpt>
      <trkpt lat="44.74326" lon="-0.14237">
        <ele>65</ele>
        <time>2011-03-20T16:18:44Z</time>
      </trkpt>
      <trkpt lat="44.74328" lon="-0.14252">
        <ele>66</ele>
        <time>2011-03-20T16:18:53Z</time>
      </trkpt>
      <trkpt lat="44.7433" lon="-0.14267">
        <ele>68</ele>
        <time>2011-03-20T16:19:03Z</time>
      </trkpt>
      <trkpt lat="44.74333" lon="-0.14284">
        <ele>69</ele>
        <time>2011-03-20T16:19:12Z</time>
      </trkpt>
      <trkpt lat="44.74337" lon="-0.143">
        <ele>69</ele>
        <time>2011-03-20T16:19:22Z</time>
      </trkpt>
      <trkpt lat="44.7434" lon="-0.14317">
        <ele>70</ele>
        <time>2011-03-20T16:19:32Z</time>
      </trkpt>
      <trkpt lat="44.74349" lon="-0.14326">
        <ele>70</ele>
        <time>2011-03-20T16:19:42Z</time>
      </trkpt>
      <trkpt lat="44.74359" lon="-0.14327">
        <ele>71</ele>
        <time>2011-03-20T16:19:51Z</time>
      </trkpt>
      <trkpt lat="44.74372" lon="-0.14326">
        <ele>71</ele>
        <time>2011-03-20T16:20:02Z</time>
      </trkpt>
      <trkpt lat="44.74382" lon="-0.14335">
        <ele>71</ele>
        <time>2011-03-20T16:20:12Z</time>
      </trkpt>
      <trkpt lat="44.7438" lon="-0.14349">
        <ele>72</ele>
        <time>2011-03-20T16:20:21Z</time>
      </trkpt>
      <trkpt lat="44.74378" lon="-0.14366">
        <ele>74</ele>
        <time>2011-03-20T16:20:31Z</time>
      </trkpt>
      <trkpt lat="44.74376" lon="-0.14384">
        <ele>75</ele>
        <time>2011-03-20T16:20:42Z</time>
      </trkpt>
      <trkpt lat="44.74374" lon="-0.14402">
        <ele>75</ele>
        <time>2011-03-20T16:20:51Z</time>
      </trkpt>
      <trkpt lat="44.74371" lon="-0.1442">
        <ele>76</ele>
        <time>2011-03-20T16:21:00Z</time>
      </trkpt>
      <trkpt lat="44.74369" lon="-0.14439">
        <ele>76</ele>
        <time>2011-03-20T16:21:12Z</time>
      </trkpt>
      <trkpt lat="44.74367" lon="-0.14453">
        <ele>76</ele>
        <time>2011-03-20T16:21:21Z</time>
      </trkpt>
      <trkpt lat="44.74364" lon="-0.14472">
        <ele>76</ele>
        <time>2011-03-20T16:21:33Z</time>
      </trkpt>
      <trkpt lat="44.74362" lon="-0.14487">
        <ele>76</ele>
        <time>2011-03-20T16:21:42Z</time>
      </trkpt>
      <trkpt lat="44.74358" lon="-0.14505">
        <ele>77</ele>
        <time>2011-03-20T16:21:53Z</time>
      </trkpt>
      <trkpt lat="44.74356" lon="-0.14521">
        <ele>77</ele>
        <time>2011-03-20T16:22:02Z</time>
      </trkpt>
      <trkpt lat="44.74355" lon="-0.14535">
        <ele>77</ele>
        <time>2011-03-20T16:22:12Z</time>
      </trkpt>
      <trkpt lat="44.74355" lon="-0.14551">
        <ele>77</ele>
        <time>2011-03-20T16:22:21Z</time>
      </trkpt>
      <trkpt lat="44.74359" lon="-0.14572">
        <ele>75</ele>
        <time>2011-03-20T16:22:32Z</time>
      </trkpt>
      <trkpt lat="44.74361" lon="-0.14586">
        <ele>74</ele>
        <time>2011-03-20T16:22:43Z</time>
      </trkpt>
      <trkpt lat="44.74361" lon="-0.14603">
        <ele>74</ele>
        <time>2011-03-20T16:22:53Z</time>
      </trkpt>
      <trkpt lat="44.74359" lon="-0.14625">
        <ele>74</ele>
        <time>2011-03-20T16:23:03Z</time>
      </trkpt>
      <trkpt lat="44.74358" lon="-0.14641">
        <ele>74</ele>
        <time>2011-03-20T16:23:13Z</time>
      </trkpt>
      <trkpt lat="44.74354" lon="-0.1466">
        <ele>74</ele>
        <time>2011-03-20T16:23:23Z</time>
      </trkpt>
      <trkpt lat="44.74351" lon="-0.14678">
        <ele>74</ele>
        <time>2011-03-20T16:23:33Z</time>
      </trkpt>
      <trkpt lat="44.74348" lon="-0.14693">
        <ele>74</ele>
        <time>2011-03-20T16:23:42Z</time>
      </trkpt>
      <trkpt lat="44.74343" lon="-0.14709">
        <ele>74</ele>
        <time>2011-03-20T16:23:52Z</time>
      </trkpt>
      <trkpt lat="44.74338" lon="-0.14724">
        <ele>74</ele>
        <time>2011-03-20T16:24:02Z</time>
      </trkpt>
      <trkpt lat="44.74332" lon="-0.14741">
        <ele>74</ele>
        <time>2011-03-20T16:24:13Z</time>
      </trkpt>
      <trkpt lat="44.74325" lon="-0.14755">
        <ele>74</ele>
        <time>2011-03-20T16:24:23Z</time>
      </trkpt>
      <trkpt lat="44.7432" lon="-0.14772">
        <ele>74</ele>
        <time>2011-03-20T16:24:32Z</time>
      </trkpt>
      <trkpt lat="44.74314" lon="-0.1479">
        <ele>74</ele>
        <time>2011-03-20T16:24:42Z</time>
      </trkpt>
      <trkpt lat="44.74309" lon="-0.14805">
        <ele>74</ele>
        <time>2011-03-20T16:24:51Z</time>
      </trkpt>
      <trkpt lat="44.74307" lon="-0.14823">
        <ele>74</ele>
        <time>2011-03-20T16:25:01Z</time>
      </trkpt>
      <trkpt lat="44.74303" lon="-0.1484">
        <ele>74</ele>
        <time>2011-03-20T16:25:11Z</time>
      </trkpt>
      <trkpt lat="44.74299" lon="-0.14855">
        <ele>73</ele>
        <time>2011-03-20T16:25:20Z</time>
      </trkpt>
      <trkpt lat="44.74296" lon="-0.14873">
        <ele>73</ele>
        <time>2011-03-20T16:25:32Z</time>
      </trkpt>
      <trkpt lat="44.74293" lon="-0.14888">
        <ele>73</ele>
        <time>2011-03-20T16:25:41Z</time>
      </trkpt>
      <trkpt lat="44.7429" lon="-0.14906">
        <ele>72</ele>
        <time>2011-03-20T16:25:53Z</time>
      </trkpt>
      <trkpt lat="44.74287" lon="-0.14924">
        <ele>71</ele>
        <time>2011-03-20T16:26:03Z</time>
      </trkpt>
      <trkpt lat="44.74284" lon="-0.14939">
        <ele>70</ele>
        <time>2011-03-20T16:26:15Z</time>
      </trkpt>
      <trkpt lat="44.74281" lon="-0.14953">
        <ele>66</ele>
        <time>2011-03-20T16:26:24Z</time>
      </trkpt>
      <trkpt lat="44.74274" lon="-0.14964">
        <ele>64</ele>
        <time>2011-03-20T16:26:33Z</time>
      </trkpt>
      <trkpt lat="44.74266" lon="-0.14975">
        <ele>64</ele>
        <time>2011-03-20T16:26:43Z</time>
      </trkpt>
      <trkpt lat="44.74256" lon="-0.1499">
        <ele>64</ele>
        <time>2011-03-20T16:26:53Z</time>
      </trkpt>
      <trkpt lat="44.74255" lon="-0.15007">
        <ele>64</ele>
        <time>2011-03-20T16:27:03Z</time>
      </trkpt>
      <trkpt lat="44.74254" lon="-0.15024">
        <ele>64</ele>
        <time>2011-03-20T16:27:13Z</time>
      </trkpt>
      <trkpt lat="44.7425" lon="-0.15034">
        <ele>64</ele>
        <time>2011-03-20T16:27:34Z</time>
      </trkpt>
      <trkpt lat="44.7425" lon="-0.15038">
        <ele>64</ele>
        <time>2011-03-20T16:27:48Z</time>
      </trkpt>
      <trkpt lat="44.74248" lon="-0.15043">
        <ele>64</ele>
        <time>2011-03-20T16:28:08Z</time>
      </trkpt>
      <trkpt lat="44.74246" lon="-0.15061">
        <ele>64</ele>
        <time>2011-03-20T16:28:18Z</time>
      </trkpt>
      <trkpt lat="44.74237" lon="-0.15063">
        <ele>64</ele>
        <time>2011-03-20T16:28:28Z</time>
      </trkpt>
      <trkpt lat="44.74229" lon="-0.15057">
        <ele>63</ele>
        <time>2011-03-20T16:28:38Z</time>
      </trkpt>
      <trkpt lat="44.74218" lon="-0.15051">
        <ele>63</ele>
        <time>2011-03-20T16:28:48Z</time>
      </trkpt>
      <trkpt lat="44.74208" lon="-0.15046">
        <ele>63</ele>
        <time>2011-03-20T16:28:58Z</time>
      </trkpt>
      <trkpt lat="44.74195" lon="-0.15039">
        <ele>63</ele>
        <time>2011-03-20T16:29:10Z</time>
      </trkpt>
      <trkpt lat="44.74186" lon="-0.15035">
        <ele>62</ele>
        <time>2011-03-20T16:29:21Z</time>
      </trkpt>
      <trkpt lat="44.74177" lon="-0.15037">
        <ele>61</ele>
        <time>2011-03-20T16:29:30Z</time>
      </trkpt>
      <trkpt lat="44.74167" lon="-0.15048">
        <ele>61</ele>
        <time>2011-03-20T16:29:41Z</time>
      </trkpt>
      <trkpt lat="44.74159" lon="-0.15044">
        <ele>61</ele>
        <time>2011-03-20T16:29:51Z</time>
      </trkpt>
      <trkpt lat="44.7415" lon="-0.15038">
        <ele>61</ele>
        <time>2011-03-20T16:30:00Z</time>
      </trkpt>
      <trkpt lat="44.7414" lon="-0.15034">
        <ele>61</ele>
        <time>2011-03-20T16:30:12Z</time>
      </trkpt>
      <trkpt lat="44.74131" lon="-0.15028">
        <ele>61</ele>
        <time>2011-03-20T16:30:22Z</time>
      </trkpt>
      <trkpt lat="44.74121" lon="-0.15023">
        <ele>61</ele>
        <time>2011-03-20T16:30:32Z</time>
      </trkpt>
      <trkpt lat="44.74109" lon="-0.15017">
        <ele>61</ele>
        <time>2011-03-20T16:30:42Z</time>
      </trkpt>
      <trkpt lat="44.741" lon="-0.15023">
        <ele>61</ele>
        <time>2011-03-20T16:30:51Z</time>
      </trkpt>
      <trkpt lat="44.74098" lon="-0.15038">
        <ele>61</ele>
        <time>2011-03-20T16:31:00Z</time>
      </trkpt>
      <trkpt lat="44.74097" lon="-0.15053">
        <ele>61</ele>
        <time>2011-03-20T16:31:10Z</time>
      </trkpt>
      <trkpt lat="44.74098" lon="-0.15068">
        <ele>62</ele>
        <time>2011-03-20T16:31:20Z</time>
      </trkpt>
      <trkpt lat="44.74099" lon="-0.15083">
        <ele>62</ele>
        <time>2011-03-20T16:31:30Z</time>
      </trkpt>
      <trkpt lat="44.74099" lon="-0.15096">
        <ele>62</ele>
        <time>2011-03-20T16:31:39Z</time>
      </trkpt>
      <trkpt lat="44.74095" lon="-0.15111">
        <ele>63</ele>
        <time>2011-03-20T16:31:49Z</time>
      </trkpt>
      <trkpt lat="44.74087" lon="-0.15124">
        <ele>64</ele>
        <time>2011-03-20T16:31:59Z</time>
      </trkpt>
      <trkpt lat="44.74083" lon="-0.15137">
        <ele>64</ele>
        <time>2011-03-20T16:32:10Z</time>
      </trkpt>
      <trkpt lat="44.74078" lon="-0.1515">
        <ele>64</ele>
        <time>2011-03-20T16:32:20Z</time>
      </trkpt>
      <trkpt lat="44.74072" lon="-0.15164">
        <ele>64</ele>
        <time>2011-03-20T16:32:29Z</time>
      </trkpt>
      <trkpt lat="44.74067" lon="-0.15175">
        <ele>64</ele>
        <time>2011-03-20T16:32:40Z</time>
      </trkpt>
      <trkpt lat="44.74064" lon="-0.15188">
        <ele>64</ele>
        <time>2011-03-20T16:32:49Z</time>
      </trkpt>
      <trkpt lat="44.74058" lon="-0.15195">
        <ele>64</ele>
        <time>2011-03-20T16:32:59Z</time>
      </trkpt>
      <trkpt lat="44.74052" lon="-0.15207">
        <ele>64</ele>
        <time>2011-03-20T16:33:08Z</time>
      </trkpt>
      <trkpt lat="44.7405" lon="-0.15222">
        <ele>64</ele>
        <time>2011-03-20T16:33:18Z</time>
      </trkpt>
      <trkpt lat="44.74048" lon="-0.1524">
        <ele>64</ele>
        <time>2011-03-20T16:33:29Z</time>
      </trkpt>
      <trkpt lat="44.74046" lon="-0.15256">
        <ele>64</ele>
        <time>2011-03-20T16:33:39Z</time>
      </trkpt>
      <trkpt lat="44.74044" lon="-0.1527">
        <ele>64</ele>
        <time>2011-03-20T16:33:48Z</time>
      </trkpt>
      <trkpt lat="44.74042" lon="-0.15286">
        <ele>64</ele>
        <time>2011-03-20T16:33:58Z</time>
      </trkpt>
      <trkpt lat="44.7404" lon="-0.153">
        <ele>64</ele>
        <time>2011-03-20T16:34:07Z</time>
      </trkpt>
      <trkpt lat="44.74038" lon="-0.15316">
        <ele>64</ele>
        <time>2011-03-20T16:34:19Z</time>
      </trkpt>
      <trkpt lat="44.74036" lon="-0.1533">
        <ele>64</ele>
        <time>2011-03-20T16:34:28Z</time>
      </trkpt>
      <trkpt lat="44.74035" lon="-0.15346">
        <ele>64</ele>
        <time>2011-03-20T16:34:37Z</time>
      </trkpt>
      <trkpt lat="44.74032" lon="-0.15361">
        <ele>64</ele>
        <time>2011-03-20T16:34:47Z</time>
      </trkpt>
      <trkpt lat="44.74033" lon="-0.15374">
        <ele>63</ele>
        <time>2011-03-20T16:34:57Z</time>
      </trkpt>
      <trkpt lat="44.74029" lon="-0.15389">
        <ele>63</ele>
        <time>2011-03-20T16:35:07Z</time>
      </trkpt>
      <trkpt lat="44.74027" lon="-0.15406">
        <ele>63</ele>
        <time>2011-03-20T16:35:16Z</time>
      </trkpt>
      <trkpt lat="44.74025" lon="-0.15421">
        <ele>63</ele>
        <time>2011-03-20T16:35:25Z</time>
      </trkpt>
      <trkpt lat="44.74026" lon="-0.15435">
        <ele>63</ele>
        <time>2011-03-20T16:35:35Z</time>
      </trkpt>
      <trkpt lat="44.74024" lon="-0.15452">
        <ele>63</ele>
        <time>2011-03-20T16:35:45Z</time>
      </trkpt>
      <trkpt lat="44.74023" lon="-0.15466">
        <ele>63</ele>
        <time>2011-03-20T16:35:54Z</time>
      </trkpt>
      <trkpt lat="44.74022" lon="-0.15482">
        <ele>63</ele>
        <time>2011-03-20T16:36:04Z</time>
      </trkpt>
      <trkpt lat="44.7402" lon="-0.15503">
        <ele>63</ele>
        <time>2011-03-20T16:36:15Z</time>
      </trkpt>
      <trkpt lat="44.74018" lon="-0.15521">
        <ele>63</ele>
        <time>2011-03-20T16:36:25Z</time>
      </trkpt>
      <trkpt lat="44.74017" lon="-0.15536">
        <ele>63</ele>
        <time>2011-03-20T16:36:34Z</time>
      </trkpt>
      <trkpt lat="44.74014" lon="-0.1555">
        <ele>63</ele>
        <time>2011-03-20T16:36:43Z</time>
      </trkpt>
      <trkpt lat="44.74011" lon="-0.15567">
        <ele>63</ele>
        <time>2011-03-20T16:36:53Z</time>
      </trkpt>
      <trkpt lat="44.74011" lon="-0.15586">
        <ele>63</ele>
        <time>2011-03-20T16:37:04Z</time>
      </trkpt>
      <trkpt lat="44.7401" lon="-0.15602">
        <ele>63</ele>
        <time>2011-03-20T16:37:14Z</time>
      </trkpt>
      <trkpt lat="44.74009" lon="-0.15621">
        <ele>63</ele>
        <time>2011-03-20T16:37:24Z</time>
      </trkpt>
      <trkpt lat="44.74007" lon="-0.15631">
        <ele>63</ele>
        <time>2011-03-20T16:37:43Z</time>
      </trkpt>
      <trkpt lat="44.74005" lon="-0.15643">
        <ele>63</ele>
        <time>2011-03-20T16:37:53Z</time>
      </trkpt>
      <trkpt lat="44.74" lon="-0.15647">
        <ele>61</ele>
        <time>2011-03-20T16:38:05Z</time>
      </trkpt>
      <trkpt lat="44.73993" lon="-0.1566">
        <ele>60</ele>
        <time>2011-03-20T16:38:15Z</time>
      </trkpt>
      <trkpt lat="44.73987" lon="-0.15672">
        <ele>60</ele>
        <time>2011-03-20T16:38:24Z</time>
      </trkpt>
      <trkpt lat="44.73979" lon="-0.15688">
        <ele>59</ele>
        <time>2011-03-20T16:38:37Z</time>
      </trkpt>
      <trkpt lat="44.73973" lon="-0.15704">
        <ele>59</ele>
        <time>2011-03-20T16:38:46Z</time>
      </trkpt>
      <trkpt lat="44.73969" lon="-0.15719">
        <ele>59</ele>
        <time>2011-03-20T16:38:55Z</time>
      </trkpt>
      <trkpt lat="44.73963" lon="-0.15731">
        <ele>59</ele>
        <time>2011-03-20T16:39:04Z</time>
      </trkpt>
      <trkpt lat="44.73956" lon="-0.15746">
        <ele>59</ele>
        <time>2011-03-20T16:39:14Z</time>
      </trkpt>
      <trkpt lat="44.73948" lon="-0.15761">
        <ele>59</ele>
        <time>2011-03-20T16:39:25Z</time>
      </trkpt>
      <trkpt lat="44.73942" lon="-0.15776">
        <ele>59</ele>
        <time>2011-03-20T16:39:36Z</time>
      </trkpt>
      <trkpt lat="44.73936" lon="-0.15789">
        <ele>59</ele>
        <time>2011-03-20T16:39:46Z</time>
      </trkpt>
      <trkpt lat="44.73929" lon="-0.15803">
        <ele>59</ele>
        <time>2011-03-20T16:39:57Z</time>
      </trkpt>
      <trkpt lat="44.73924" lon="-0.1582">
        <ele>59</ele>
        <time>2011-03-20T16:40:08Z</time>
      </trkpt>
      <trkpt lat="44.7392" lon="-0.15833">
        <ele>59</ele>
        <time>2011-03-20T16:40:18Z</time>
      </trkpt>
      <trkpt lat="44.73917" lon="-0.15846">
        <ele>59</ele>
        <time>2011-03-20T16:40:27Z</time>
      </trkpt>
      <trkpt lat="44.73912" lon="-0.15861">
        <ele>59</ele>
        <time>2011-03-20T16:40:36Z</time>
      </trkpt>
      <trkpt lat="44.73907" lon="-0.15876">
        <ele>60</ele>
        <time>2011-03-20T16:40:46Z</time>
      </trkpt>
      <trkpt lat="44.73905" lon="-0.15892">
        <ele>61</ele>
        <time>2011-03-20T16:40:57Z</time>
      </trkpt>
      <trkpt lat="44.73901" lon="-0.15907">
        <ele>61</ele>
        <time>2011-03-20T16:41:06Z</time>
      </trkpt>
      <trkpt lat="44.73899" lon="-0.15914">
        <ele>61</ele>
        <time>2011-03-20T16:41:18Z</time>
      </trkpt>
      <trkpt lat="44.73894" lon="-0.1593">
        <ele>61</ele>
        <time>2011-03-20T16:41:27Z</time>
      </trkpt>
      <trkpt lat="44.73888" lon="-0.1595">
        <ele>61</ele>
        <time>2011-03-20T16:41:37Z</time>
      </trkpt>
      <trkpt lat="44.73884" lon="-0.15969">
        <ele>61</ele>
        <time>2011-03-20T16:41:47Z</time>
      </trkpt>
      <trkpt lat="44.73881" lon="-0.15988">
        <ele>61</ele>
        <time>2011-03-20T16:41:57Z</time>
      </trkpt>
      <trkpt lat="44.73876" lon="-0.16008">
        <ele>61</ele>
        <time>2011-03-20T16:42:08Z</time>
      </trkpt>
      <trkpt lat="44.73874" lon="-0.16025">
        <ele>61</ele>
        <time>2011-03-20T16:42:18Z</time>
      </trkpt>
      <trkpt lat="44.73873" lon="-0.16039">
        <ele>61</ele>
        <time>2011-03-20T16:42:28Z</time>
      </trkpt>
      <trkpt lat="44.73873" lon="-0.16055">
        <ele>61</ele>
        <time>2011-03-20T16:42:37Z</time>
      </trkpt>
      <trkpt lat="44.73869" lon="-0.16074">
        <ele>59</ele>
        <time>2011-03-20T16:42:46Z</time>
      </trkpt>
      <trkpt lat="44.73865" lon="-0.1609">
        <ele>58</ele>
        <time>2011-03-20T16:42:55Z</time>
      </trkpt>
      <trkpt lat="44.73861" lon="-0.16106">
        <ele>58</ele>
        <time>2011-03-20T16:43:04Z</time>
      </trkpt>
      <trkpt lat="44.73856" lon="-0.16122">
        <ele>58</ele>
        <time>2011-03-20T16:43:13Z</time>
      </trkpt>
      <trkpt lat="44.73853" lon="-0.16139">
        <ele>58</ele>
        <time>2011-03-20T16:43:22Z</time>
      </trkpt>
      <trkpt lat="44.7385" lon="-0.16153">
        <ele>58</ele>
        <time>2011-03-20T16:43:31Z</time>
      </trkpt>
      <trkpt lat="44.73848" lon="-0.16169">
        <ele>58</ele>
        <time>2011-03-20T16:43:41Z</time>
      </trkpt>
      <trkpt lat="44.73846" lon="-0.16185">
        <ele>58</ele>
        <time>2011-03-20T16:43:50Z</time>
      </trkpt>
      <trkpt lat="44.73843" lon="-0.16201">
        <ele>58</ele>
        <time>2011-03-20T16:44:00Z</time>
      </trkpt>
      <trkpt lat="44.73842" lon="-0.16218">
        <ele>59</ele>
        <time>2011-03-20T16:44:09Z</time>
      </trkpt>
      <trkpt lat="44.73838" lon="-0.16232">
        <ele>59</ele>
        <time>2011-03-20T16:44:18Z</time>
      </trkpt>
      <trkpt lat="44.73832" lon="-0.16243">
        <ele>59</ele>
        <time>2011-03-20T16:44:29Z</time>
      </trkpt>
      <trkpt lat="44.73823" lon="-0.16252">
        <ele>59</ele>
        <time>2011-03-20T16:44:39Z</time>
      </trkpt>
      <trkpt lat="44.73815" lon="-0.1626">
        <ele>59</ele>
        <time>2011-03-20T16:44:48Z</time>
      </trkpt>
      <trkpt lat="44.73805" lon="-0.16269">
        <ele>59</ele>
        <time>2011-03-20T16:44:58Z</time>
      </trkpt>
      <trkpt lat="44.73798" lon="-0.1628">
        <ele>58</ele>
        <time>2011-03-20T16:45:07Z</time>
      </trkpt>
      <trkpt lat="44.73795" lon="-0.16295">
        <ele>57</ele>
        <time>2011-03-20T16:45:16Z</time>
      </trkpt>
      <trkpt lat="44.73792" lon="-0.1631">
        <ele>57</ele>
        <time>2011-03-20T16:45:25Z</time>
      </trkpt>
      <trkpt lat="44.7379" lon="-0.16314">
        <ele>57</ele>
        <time>2011-03-20T16:45:34Z</time>
      </trkpt>
      <trkpt lat="44.73783" lon="-0.16322">
        <ele>57</ele>
        <time>2011-03-20T16:45:44Z</time>
      </trkpt>
      <trkpt lat="44.73773" lon="-0.16319">
        <ele>56</ele>
        <time>2011-03-20T16:45:54Z</time>
      </trkpt>
      <trkpt lat="44.73765" lon="-0.16315">
        <ele>56</ele>
        <time>2011-03-20T16:46:03Z</time>
      </trkpt>
      <trkpt lat="44.73753" lon="-0.16311">
        <ele>56</ele>
        <time>2011-03-20T16:46:12Z</time>
      </trkpt>
      <trkpt lat="44.73741" lon="-0.16307">
        <ele>56</ele>
        <time>2011-03-20T16:46:22Z</time>
      </trkpt>
      <trkpt lat="44.73731" lon="-0.16304">
        <ele>56</ele>
        <time>2011-03-20T16:46:31Z</time>
      </trkpt>
      <trkpt lat="44.73722" lon="-0.16298">
        <ele>56</ele>
        <time>2011-03-20T16:46:40Z</time>
      </trkpt>
      <trkpt lat="44.73712" lon="-0.16293">
        <ele>56</ele>
        <time>2011-03-20T16:46:49Z</time>
      </trkpt>
      <trkpt lat="44.73699" lon="-0.16288">
        <ele>56</ele>
        <time>2011-03-20T16:46:58Z</time>
      </trkpt>
      <trkpt lat="44.73689" lon="-0.16287">
        <ele>56</ele>
        <time>2011-03-20T16:47:07Z</time>
      </trkpt>
      <trkpt lat="44.73676" lon="-0.1629">
        <ele>56</ele>
        <time>2011-03-20T16:47:16Z</time>
      </trkpt>
      <trkpt lat="44.73665" lon="-0.16296">
        <ele>56</ele>
        <time>2011-03-20T16:47:25Z</time>
      </trkpt>
      <trkpt lat="44.73655" lon="-0.16299">
        <ele>55</ele>
        <time>2011-03-20T16:47:34Z</time>
      </trkpt>
      <trkpt lat="44.73643" lon="-0.16304">
        <ele>55</ele>
        <time>2011-03-20T16:47:43Z</time>
      </trkpt>
      <trkpt lat="44.73631" lon="-0.16306">
        <ele>55</ele>
        <time>2011-03-20T16:47:53Z</time>
      </trkpt>
      <trkpt lat="44.7362" lon="-0.16307">
        <ele>55</ele>
        <time>2011-03-20T16:48:02Z</time>
      </trkpt>
      <trkpt lat="44.7361" lon="-0.16308">
        <ele>55</ele>
        <time>2011-03-20T16:48:11Z</time>
      </trkpt>
      <trkpt lat="44.73598" lon="-0.16309">
        <ele>54</ele>
        <time>2011-03-20T16:48:20Z</time>
      </trkpt>
      <trkpt lat="44.73588" lon="-0.16311">
        <ele>51</ele>
        <time>2011-03-20T16:48:29Z</time>
      </trkpt>
      <trkpt lat="44.73576" lon="-0.16312">
        <ele>50</ele>
        <time>2011-03-20T16:48:38Z</time>
      </trkpt>
      <trkpt lat="44.73565" lon="-0.16312">
        <ele>50</ele>
        <time>2011-03-20T16:48:47Z</time>
      </trkpt>
      <trkpt lat="44.73554" lon="-0.16313">
        <ele>49</ele>
        <time>2011-03-20T16:48:56Z</time>
      </trkpt>
      <trkpt lat="44.73543" lon="-0.16313">
        <ele>48</ele>
        <time>2011-03-20T16:49:06Z</time>
      </trkpt>
      <trkpt lat="44.73535" lon="-0.16314">
        <ele>48</ele>
        <time>2011-03-20T16:49:15Z</time>
      </trkpt>
      <trkpt lat="44.73524" lon="-0.16314">
        <ele>47</ele>
        <time>2011-03-20T16:49:24Z</time>
      </trkpt>
      <trkpt lat="44.73514" lon="-0.16308">
        <ele>47</ele>
        <time>2011-03-20T16:49:33Z</time>
      </trkpt>
      <trkpt lat="44.73507" lon="-0.16302">
        <ele>46</ele>
        <time>2011-03-20T16:49:42Z</time>
      </trkpt>
      <trkpt lat="44.73498" lon="-0.16299">
        <ele>46</ele>
        <time>2011-03-20T16:49:51Z</time>
      </trkpt>
      <trkpt lat="44.73494" lon="-0.16304">
        <ele>45</ele>
        <time>2011-03-20T16:50:00Z</time>
      </trkpt>
      <trkpt lat="44.73494" lon="-0.16306">
        <ele>45</ele>
        <time>2011-03-20T16:50:09Z</time>
      </trkpt>
      <trkpt lat="44.73494" lon="-0.16305">
        <ele>45</ele>
        <time>2011-03-20T16:50:30Z</time>
      </trkpt>
    </trkseg>
  </trk>
</gpx>